<?xml version="1.0" encoding="UTF-8" standalone="no" ?>
<gpx xmlns="http://www.topografix.com/GPX/1/1" xmlns:xsi="http://www.w3.org/2001/XMLSchema-instance" xsi:schemaLocation="http://www.topografix.com/GPX/1/1 http://www.topografix.com/GPX/1/1/gpx.xsd" version="1.1" creator="VisuGPX - https://www.visugpx.com">
  <metadata>
    <name>Running Mag - Semi marathon de Mons</name>
    <desc><![CDATA[Running Mag - Semi marathon de Mons - Merci JC - trace GPS]]></desc>
  </metadata>
  <trk>
    <name><![CDATA[Semi de Mons 2011]]></name>
    <trkseg>
      <trkpt lat="43.61093" lon="1.57449">
        <ele>231.33435058594</ele>
        <time>2011-05-15T07:32:04Z</time>
      </trkpt>
      <trkpt lat="43.61093" lon="1.57448">
        <ele>230.373046875</ele>
        <time>2011-05-15T07:32:08Z</time>
      </trkpt>
      <trkpt lat="43.61093" lon="1.57448">
        <ele>229.41174316406</ele>
        <time>2011-05-15T07:32:10Z</time>
      </trkpt>
      <trkpt lat="43.61095" lon="1.57446">
        <ele>229.41174316406</ele>
        <time>2011-05-15T07:32:12Z</time>
      </trkpt>
      <trkpt lat="43.61096" lon="1.57445">
        <ele>229.89233398438</ele>
        <time>2011-05-15T07:32:13Z</time>
      </trkpt>
      <trkpt lat="43.61099" lon="1.5744">
        <ele>229.89233398438</ele>
        <time>2011-05-15T07:32:16Z</time>
      </trkpt>
      <trkpt lat="43.61103" lon="1.57433">
        <ele>228.45043945312</ele>
        <time>2011-05-15T07:32:19Z</time>
      </trkpt>
      <trkpt lat="43.61105" lon="1.57428">
        <ele>227.48913574219</ele>
        <time>2011-05-15T07:32:21Z</time>
      </trkpt>
      <trkpt lat="43.61108" lon="1.57422">
        <ele>227.00854492188</ele>
        <time>2011-05-15T07:32:23Z</time>
      </trkpt>
      <trkpt lat="43.61112" lon="1.57414">
        <ele>227.00854492188</ele>
        <time>2011-05-15T07:32:25Z</time>
      </trkpt>
      <trkpt lat="43.61114" lon="1.5741">
        <ele>227.48913574219</ele>
        <time>2011-05-15T07:32:26Z</time>
      </trkpt>
      <trkpt lat="43.61115" lon="1.57406">
        <ele>227.48913574219</ele>
        <time>2011-05-15T07:32:27Z</time>
      </trkpt>
      <trkpt lat="43.6112" lon="1.57393">
        <ele>227.48913574219</ele>
        <time>2011-05-15T07:32:30Z</time>
      </trkpt>
      <trkpt lat="43.61128" lon="1.57379">
        <ele>227.00854492188</ele>
        <time>2011-05-15T07:32:33Z</time>
      </trkpt>
      <trkpt lat="43.61135" lon="1.57367">
        <ele>226.52783203125</ele>
        <time>2011-05-15T07:32:36Z</time>
      </trkpt>
      <trkpt lat="43.61145" lon="1.57347">
        <ele>225.56652832031</ele>
        <time>2011-05-15T07:32:41Z</time>
      </trkpt>
      <trkpt lat="43.61155" lon="1.57333">
        <ele>226.04711914062</ele>
        <time>2011-05-15T07:32:45Z</time>
      </trkpt>
      <trkpt lat="43.61166" lon="1.57314">
        <ele>227.48913574219</ele>
        <time>2011-05-15T07:32:50Z</time>
      </trkpt>
      <trkpt lat="43.61176" lon="1.57295">
        <ele>227.48913574219</ele>
        <time>2011-05-15T07:32:55Z</time>
      </trkpt>
      <trkpt lat="43.61187" lon="1.57273">
        <ele>227.48913574219</ele>
        <time>2011-05-15T07:33:01Z</time>
      </trkpt>
      <trkpt lat="43.61194" lon="1.57263">
        <ele>227.00854492188</ele>
        <time>2011-05-15T07:33:04Z</time>
      </trkpt>
      <trkpt lat="43.61202" lon="1.5726">
        <ele>226.04711914062</ele>
        <time>2011-05-15T07:33:08Z</time>
      </trkpt>
      <trkpt lat="43.61207" lon="1.57267">
        <ele>226.04711914062</ele>
        <time>2011-05-15T07:33:11Z</time>
      </trkpt>
      <trkpt lat="43.61223" lon="1.5728">
        <ele>227.00854492188</ele>
        <time>2011-05-15T07:33:17Z</time>
      </trkpt>
      <trkpt lat="43.61233" lon="1.57282">
        <ele>226.52783203125</ele>
        <time>2011-05-15T07:33:21Z</time>
      </trkpt>
      <trkpt lat="43.61248" lon="1.57279">
        <ele>224.60522460938</ele>
        <time>2011-05-15T07:33:27Z</time>
      </trkpt>
      <trkpt lat="43.61264" lon="1.57269">
        <ele>222.68249511719</ele>
        <time>2011-05-15T07:33:32Z</time>
      </trkpt>
      <trkpt lat="43.6128" lon="1.57262">
        <ele>220.27917480469</ele>
        <time>2011-05-15T07:33:37Z</time>
      </trkpt>
      <trkpt lat="43.61299" lon="1.57258">
        <ele>216.91467285156</ele>
        <time>2011-05-15T07:33:42Z</time>
      </trkpt>
      <trkpt lat="43.61313" lon="1.57258">
        <ele>214.99194335938</ele>
        <time>2011-05-15T07:33:46Z</time>
      </trkpt>
      <trkpt lat="43.6133" lon="1.57257">
        <ele>213.0693359375</ele>
        <time>2011-05-15T07:33:51Z</time>
      </trkpt>
      <trkpt lat="43.61333" lon="1.57257">
        <ele>213.55004882812</ele>
        <time>2011-05-15T07:33:52Z</time>
      </trkpt>
      <trkpt lat="43.61352" lon="1.57272">
        <ele>215.47265625</ele>
        <time>2011-05-15T07:33:58Z</time>
      </trkpt>
      <trkpt lat="43.61369" lon="1.57281">
        <ele>216.91467285156</ele>
        <time>2011-05-15T07:34:03Z</time>
      </trkpt>
      <trkpt lat="43.61385" lon="1.57289">
        <ele>216.43395996094</ele>
        <time>2011-05-15T07:34:08Z</time>
      </trkpt>
      <trkpt lat="43.61401" lon="1.57301">
        <ele>215.47265625</ele>
        <time>2011-05-15T07:34:13Z</time>
      </trkpt>
      <trkpt lat="43.61404" lon="1.57318">
        <ele>214.99194335938</ele>
        <time>2011-05-15T07:34:17Z</time>
      </trkpt>
      <trkpt lat="43.61399" lon="1.57335">
        <ele>214.99194335938</ele>
        <time>2011-05-15T07:34:21Z</time>
      </trkpt>
      <trkpt lat="43.61391" lon="1.5736">
        <ele>214.99194335938</ele>
        <time>2011-05-15T07:34:26Z</time>
      </trkpt>
      <trkpt lat="43.61385" lon="1.57381">
        <ele>214.99194335938</ele>
        <time>2011-05-15T07:34:31Z</time>
      </trkpt>
      <trkpt lat="43.61377" lon="1.57406">
        <ele>215.95324707031</ele>
        <time>2011-05-15T07:34:37Z</time>
      </trkpt>
      <trkpt lat="43.61368" lon="1.57429">
        <ele>216.91467285156</ele>
        <time>2011-05-15T07:34:42Z</time>
      </trkpt>
      <trkpt lat="43.61361" lon="1.57452">
        <ele>216.91467285156</ele>
        <time>2011-05-15T07:34:47Z</time>
      </trkpt>
      <trkpt lat="43.61349" lon="1.57473">
        <ele>216.91467285156</ele>
        <time>2011-05-15T07:34:52Z</time>
      </trkpt>
      <trkpt lat="43.61337" lon="1.57482">
        <ele>216.91467285156</ele>
        <time>2011-05-15T07:34:56Z</time>
      </trkpt>
      <trkpt lat="43.61327" lon="1.57487">
        <ele>219.31799316406</ele>
        <time>2011-05-15T07:35:00Z</time>
      </trkpt>
      <trkpt lat="43.61324" lon="1.57489">
        <ele>220.75988769531</ele>
        <time>2011-05-15T07:35:02Z</time>
      </trkpt>
      <trkpt lat="43.61307" lon="1.57501">
        <ele>221.72119140625</ele>
        <time>2011-05-15T07:35:08Z</time>
      </trkpt>
      <trkpt lat="43.61293" lon="1.57522">
        <ele>221.24060058594</ele>
        <time>2011-05-15T07:35:13Z</time>
      </trkpt>
      <trkpt lat="43.61291" lon="1.57526">
        <ele>221.72119140625</ele>
        <time>2011-05-15T07:35:14Z</time>
      </trkpt>
      <trkpt lat="43.61278" lon="1.57552">
        <ele>220.75988769531</ele>
        <time>2011-05-15T07:35:20Z</time>
      </trkpt>
      <trkpt lat="43.61269" lon="1.5756">
        <ele>220.75988769531</ele>
        <time>2011-05-15T07:35:23Z</time>
      </trkpt>
      <trkpt lat="43.61256" lon="1.57552">
        <ele>220.27917480469</ele>
        <time>2011-05-15T07:35:27Z</time>
      </trkpt>
      <trkpt lat="43.61241" lon="1.57534">
        <ele>220.27917480469</ele>
        <time>2011-05-15T07:35:32Z</time>
      </trkpt>
      <trkpt lat="43.61226" lon="1.57512">
        <ele>220.75988769531</ele>
        <time>2011-05-15T07:35:38Z</time>
      </trkpt>
      <trkpt lat="43.6121" lon="1.57494">
        <ele>220.75988769531</ele>
        <time>2011-05-15T07:35:44Z</time>
      </trkpt>
      <trkpt lat="43.61193" lon="1.57485">
        <ele>222.68249511719</ele>
        <time>2011-05-15T07:35:49Z</time>
      </trkpt>
      <trkpt lat="43.61179" lon="1.57473">
        <ele>224.60522460938</ele>
        <time>2011-05-15T07:35:54Z</time>
      </trkpt>
      <trkpt lat="43.61163" lon="1.57464">
        <ele>225.0859375</ele>
        <time>2011-05-15T07:35:59Z</time>
      </trkpt>
      <trkpt lat="43.61151" lon="1.57454">
        <ele>227.48913574219</ele>
        <time>2011-05-15T07:36:04Z</time>
      </trkpt>
      <trkpt lat="43.61135" lon="1.57442">
        <ele>226.52783203125</ele>
        <time>2011-05-15T07:36:10Z</time>
      </trkpt>
      <trkpt lat="43.6112" lon="1.5743">
        <ele>227.9697265625</ele>
        <time>2011-05-15T07:36:15Z</time>
      </trkpt>
      <trkpt lat="43.61113" lon="1.5741">
        <ele>229.41174316406</ele>
        <time>2011-05-15T07:36:20Z</time>
      </trkpt>
      <trkpt lat="43.61117" lon="1.57392">
        <ele>230.373046875</ele>
        <time>2011-05-15T07:36:24Z</time>
      </trkpt>
      <trkpt lat="43.61124" lon="1.5737">
        <ele>229.89233398438</ele>
        <time>2011-05-15T07:36:29Z</time>
      </trkpt>
      <trkpt lat="43.61136" lon="1.57346">
        <ele>230.85375976562</ele>
        <time>2011-05-15T07:36:35Z</time>
      </trkpt>
      <trkpt lat="43.61149" lon="1.57321">
        <ele>232.77648925781</ele>
        <time>2011-05-15T07:36:41Z</time>
      </trkpt>
      <trkpt lat="43.6116" lon="1.57299">
        <ele>231.81494140625</ele>
        <time>2011-05-15T07:36:47Z</time>
      </trkpt>
      <trkpt lat="43.61172" lon="1.57275">
        <ele>233.73767089844</ele>
        <time>2011-05-15T07:36:53Z</time>
      </trkpt>
      <trkpt lat="43.61188" lon="1.57241">
        <ele>238.06359863281</ele>
        <time>2011-05-15T07:37:01Z</time>
      </trkpt>
      <trkpt lat="43.61198" lon="1.57214">
        <ele>240.46704101562</ele>
        <time>2011-05-15T07:37:07Z</time>
      </trkpt>
      <trkpt lat="43.61206" lon="1.57189">
        <ele>239.50549316406</ele>
        <time>2011-05-15T07:37:13Z</time>
      </trkpt>
      <trkpt lat="43.61215" lon="1.57167">
        <ele>239.50549316406</ele>
        <time>2011-05-15T07:37:18Z</time>
      </trkpt>
      <trkpt lat="43.61226" lon="1.57141">
        <ele>240.46704101562</ele>
        <time>2011-05-15T07:37:24Z</time>
      </trkpt>
      <trkpt lat="43.61233" lon="1.57119">
        <ele>240.94763183594</ele>
        <time>2011-05-15T07:37:29Z</time>
      </trkpt>
      <trkpt lat="43.6124" lon="1.57103">
        <ele>239.50549316406</ele>
        <time>2011-05-15T07:37:33Z</time>
      </trkpt>
      <trkpt lat="43.61248" lon="1.57079">
        <ele>235.1796875</ele>
        <time>2011-05-15T07:37:39Z</time>
      </trkpt>
      <trkpt lat="43.61259" lon="1.57058">
        <ele>230.373046875</ele>
        <time>2011-05-15T07:37:45Z</time>
      </trkpt>
      <trkpt lat="43.61272" lon="1.57035">
        <ele>226.52783203125</ele>
        <time>2011-05-15T07:37:51Z</time>
      </trkpt>
      <trkpt lat="43.61281" lon="1.57014">
        <ele>223.64379882812</ele>
        <time>2011-05-15T07:37:57Z</time>
      </trkpt>
      <trkpt lat="43.6129" lon="1.56996">
        <ele>221.24060058594</ele>
        <time>2011-05-15T07:38:02Z</time>
      </trkpt>
      <trkpt lat="43.61302" lon="1.56968">
        <ele>218.83728027344</ele>
        <time>2011-05-15T07:38:09Z</time>
      </trkpt>
      <trkpt lat="43.61315" lon="1.56939">
        <ele>216.43395996094</ele>
        <time>2011-05-15T07:38:16Z</time>
      </trkpt>
      <trkpt lat="43.61325" lon="1.56915">
        <ele>214.99194335938</ele>
        <time>2011-05-15T07:38:22Z</time>
      </trkpt>
      <trkpt lat="43.61336" lon="1.56886">
        <ele>214.03063964844</ele>
        <time>2011-05-15T07:38:29Z</time>
      </trkpt>
      <trkpt lat="43.61346" lon="1.5686">
        <ele>212.10803222656</ele>
        <time>2011-05-15T07:38:35Z</time>
      </trkpt>
      <trkpt lat="43.61351" lon="1.56841">
        <ele>212.10803222656</ele>
        <time>2011-05-15T07:38:39Z</time>
      </trkpt>
      <trkpt lat="43.61356" lon="1.56816">
        <ele>213.0693359375</ele>
        <time>2011-05-15T07:38:44Z</time>
      </trkpt>
      <trkpt lat="43.61361" lon="1.56797">
        <ele>213.0693359375</ele>
        <time>2011-05-15T07:38:48Z</time>
      </trkpt>
      <trkpt lat="43.61369" lon="1.56768">
        <ele>212.10803222656</ele>
        <time>2011-05-15T07:38:54Z</time>
      </trkpt>
      <trkpt lat="43.61375" lon="1.56741">
        <ele>211.14672851562</ele>
        <time>2011-05-15T07:39:00Z</time>
      </trkpt>
      <trkpt lat="43.6138" lon="1.56717">
        <ele>211.14672851562</ele>
        <time>2011-05-15T07:39:05Z</time>
      </trkpt>
      <trkpt lat="43.61386" lon="1.56691">
        <ele>211.62744140625</ele>
        <time>2011-05-15T07:39:11Z</time>
      </trkpt>
      <trkpt lat="43.61391" lon="1.56673">
        <ele>211.62744140625</ele>
        <time>2011-05-15T07:39:15Z</time>
      </trkpt>
      <trkpt lat="43.61396" lon="1.56646">
        <ele>211.62744140625</ele>
        <time>2011-05-15T07:39:21Z</time>
      </trkpt>
      <trkpt lat="43.61401" lon="1.56618">
        <ele>211.62744140625</ele>
        <time>2011-05-15T07:39:27Z</time>
      </trkpt>
      <trkpt lat="43.61407" lon="1.56589">
        <ele>210.666015625</ele>
        <time>2011-05-15T07:39:33Z</time>
      </trkpt>
      <trkpt lat="43.61414" lon="1.56564">
        <ele>210.18542480469</ele>
        <time>2011-05-15T07:39:38Z</time>
      </trkpt>
      <trkpt lat="43.6142" lon="1.56543">
        <ele>208.74340820312</ele>
        <time>2011-05-15T07:39:43Z</time>
      </trkpt>
      <trkpt lat="43.61424" lon="1.56514">
        <ele>208.74340820312</ele>
        <time>2011-05-15T07:39:49Z</time>
      </trkpt>
      <trkpt lat="43.61429" lon="1.56497">
        <ele>208.26281738281</ele>
        <time>2011-05-15T07:39:53Z</time>
      </trkpt>
      <trkpt lat="43.61433" lon="1.56479">
        <ele>208.26281738281</ele>
        <time>2011-05-15T07:39:57Z</time>
      </trkpt>
      <trkpt lat="43.61437" lon="1.56457">
        <ele>207.78210449219</ele>
        <time>2011-05-15T07:40:02Z</time>
      </trkpt>
      <trkpt lat="43.61442" lon="1.5643">
        <ele>207.78210449219</ele>
        <time>2011-05-15T07:40:08Z</time>
      </trkpt>
      <trkpt lat="43.61446" lon="1.56408">
        <ele>207.30139160156</ele>
        <time>2011-05-15T07:40:13Z</time>
      </trkpt>
      <trkpt lat="43.6145" lon="1.56387">
        <ele>206.34008789062</ele>
        <time>2011-05-15T07:40:18Z</time>
      </trkpt>
      <trkpt lat="43.61452" lon="1.56363">
        <ele>206.82067871094</ele>
        <time>2011-05-15T07:40:23Z</time>
      </trkpt>
      <trkpt lat="43.61453" lon="1.56343">
        <ele>207.30139160156</ele>
        <time>2011-05-15T07:40:27Z</time>
      </trkpt>
      <trkpt lat="43.61457" lon="1.5632">
        <ele>207.78210449219</ele>
        <time>2011-05-15T07:40:32Z</time>
      </trkpt>
      <trkpt lat="43.6146" lon="1.56302">
        <ele>206.82067871094</ele>
        <time>2011-05-15T07:40:36Z</time>
      </trkpt>
      <trkpt lat="43.61464" lon="1.56278">
        <ele>205.85949707031</ele>
        <time>2011-05-15T07:40:41Z</time>
      </trkpt>
      <trkpt lat="43.61467" lon="1.56255">
        <ele>205.85949707031</ele>
        <time>2011-05-15T07:40:46Z</time>
      </trkpt>
      <trkpt lat="43.6147" lon="1.56237">
        <ele>204.89807128906</ele>
        <time>2011-05-15T07:40:50Z</time>
      </trkpt>
      <trkpt lat="43.6147" lon="1.56216">
        <ele>205.37878417969</ele>
        <time>2011-05-15T07:40:55Z</time>
      </trkpt>
      <trkpt lat="43.6147" lon="1.56199">
        <ele>205.37878417969</ele>
        <time>2011-05-15T07:40:59Z</time>
      </trkpt>
      <trkpt lat="43.61463" lon="1.56177">
        <ele>206.82067871094</ele>
        <time>2011-05-15T07:41:04Z</time>
      </trkpt>
      <trkpt lat="43.61452" lon="1.56152">
        <ele>208.74340820312</ele>
        <time>2011-05-15T07:41:10Z</time>
      </trkpt>
      <trkpt lat="43.61444" lon="1.56132">
        <ele>209.70483398438</ele>
        <time>2011-05-15T07:41:15Z</time>
      </trkpt>
      <trkpt lat="43.61434" lon="1.56113">
        <ele>211.14672851562</ele>
        <time>2011-05-15T07:41:20Z</time>
      </trkpt>
      <trkpt lat="43.61426" lon="1.56095">
        <ele>212.10803222656</ele>
        <time>2011-05-15T07:41:25Z</time>
      </trkpt>
      <trkpt lat="43.61417" lon="1.56077">
        <ele>212.58862304688</ele>
        <time>2011-05-15T07:41:30Z</time>
      </trkpt>
      <trkpt lat="43.61407" lon="1.56055">
        <ele>211.14672851562</ele>
        <time>2011-05-15T07:41:35Z</time>
      </trkpt>
      <trkpt lat="43.61396" lon="1.56032">
        <ele>210.666015625</ele>
        <time>2011-05-15T07:41:41Z</time>
      </trkpt>
      <trkpt lat="43.61386" lon="1.56013">
        <ele>209.70483398438</ele>
        <time>2011-05-15T07:41:46Z</time>
      </trkpt>
      <trkpt lat="43.61376" lon="1.55996">
        <ele>209.22412109375</ele>
        <time>2011-05-15T07:41:51Z</time>
      </trkpt>
      <trkpt lat="43.61362" lon="1.55983">
        <ele>209.22412109375</ele>
        <time>2011-05-15T07:41:56Z</time>
      </trkpt>
      <trkpt lat="43.61351" lon="1.55977">
        <ele>208.26281738281</ele>
        <time>2011-05-15T07:42:00Z</time>
      </trkpt>
      <trkpt lat="43.61338" lon="1.55985">
        <ele>207.30139160156</ele>
        <time>2011-05-15T07:42:04Z</time>
      </trkpt>
      <trkpt lat="43.61334" lon="1.56005">
        <ele>206.34008789062</ele>
        <time>2011-05-15T07:42:08Z</time>
      </trkpt>
      <trkpt lat="43.61339" lon="1.56033">
        <ele>203.93688964844</ele>
        <time>2011-05-15T07:42:13Z</time>
      </trkpt>
      <trkpt lat="43.61341" lon="1.56039">
        <ele>203.45617675781</ele>
        <time>2011-05-15T07:42:14Z</time>
      </trkpt>
      <trkpt lat="43.61348" lon="1.56065">
        <ele>201.05285644531</ele>
        <time>2011-05-15T07:42:19Z</time>
      </trkpt>
      <trkpt lat="43.61357" lon="1.56096">
        <ele>197.68823242188</ele>
        <time>2011-05-15T07:42:25Z</time>
      </trkpt>
      <trkpt lat="43.6136" lon="1.56109">
        <ele>197.68823242188</ele>
        <time>2011-05-15T07:42:28Z</time>
      </trkpt>
      <trkpt lat="43.61365" lon="1.56131">
        <ele>197.68823242188</ele>
        <time>2011-05-15T07:42:33Z</time>
      </trkpt>
      <trkpt lat="43.6137" lon="1.56155">
        <ele>198.64953613281</ele>
        <time>2011-05-15T07:42:39Z</time>
      </trkpt>
      <trkpt lat="43.61372" lon="1.56174">
        <ele>199.13012695312</ele>
        <time>2011-05-15T07:42:44Z</time>
      </trkpt>
      <trkpt lat="43.61372" lon="1.56195">
        <ele>200.09167480469</ele>
        <time>2011-05-15T07:42:49Z</time>
      </trkpt>
      <trkpt lat="43.61372" lon="1.56217">
        <ele>202.49487304688</ele>
        <time>2011-05-15T07:42:54Z</time>
      </trkpt>
      <trkpt lat="43.61373" lon="1.56238">
        <ele>204.89807128906</ele>
        <time>2011-05-15T07:42:59Z</time>
      </trkpt>
      <trkpt lat="43.61371" lon="1.56259">
        <ele>206.82067871094</ele>
        <time>2011-05-15T07:43:04Z</time>
      </trkpt>
      <trkpt lat="43.61371" lon="1.56281">
        <ele>209.70483398438</ele>
        <time>2011-05-15T07:43:09Z</time>
      </trkpt>
      <trkpt lat="43.61368" lon="1.56307">
        <ele>212.10803222656</ele>
        <time>2011-05-15T07:43:15Z</time>
      </trkpt>
      <trkpt lat="43.61366" lon="1.56339">
        <ele>214.03063964844</ele>
        <time>2011-05-15T07:43:22Z</time>
      </trkpt>
      <trkpt lat="43.61364" lon="1.5636">
        <ele>213.55004882812</ele>
        <time>2011-05-15T07:43:27Z</time>
      </trkpt>
      <trkpt lat="43.61362" lon="1.56387">
        <ele>214.51123046875</ele>
        <time>2011-05-15T07:43:33Z</time>
      </trkpt>
      <trkpt lat="43.61362" lon="1.56408">
        <ele>214.99194335938</ele>
        <time>2011-05-15T07:43:38Z</time>
      </trkpt>
      <trkpt lat="43.61362" lon="1.56427">
        <ele>215.47265625</ele>
        <time>2011-05-15T07:43:42Z</time>
      </trkpt>
      <trkpt lat="43.6136" lon="1.56446">
        <ele>215.47265625</ele>
        <time>2011-05-15T07:43:46Z</time>
      </trkpt>
      <trkpt lat="43.61357" lon="1.56468">
        <ele>215.95324707031</ele>
        <time>2011-05-15T07:43:51Z</time>
      </trkpt>
      <trkpt lat="43.61351" lon="1.56507">
        <ele>214.99194335938</ele>
        <time>2011-05-15T07:43:59Z</time>
      </trkpt>
      <trkpt lat="43.61338" lon="1.5653">
        <ele>212.58862304688</ele>
        <time>2011-05-15T07:44:04Z</time>
      </trkpt>
      <trkpt lat="43.61335" lon="1.56535">
        <ele>212.10803222656</ele>
        <time>2011-05-15T07:44:05Z</time>
      </trkpt>
      <trkpt lat="43.61315" lon="1.5655">
        <ele>209.22412109375</ele>
        <time>2011-05-15T07:44:10Z</time>
      </trkpt>
      <trkpt lat="43.61301" lon="1.56556">
        <ele>208.26281738281</ele>
        <time>2011-05-15T07:44:13Z</time>
      </trkpt>
      <trkpt lat="43.61288" lon="1.56563">
        <ele>206.82067871094</ele>
        <time>2011-05-15T07:44:16Z</time>
      </trkpt>
      <trkpt lat="43.61274" lon="1.5657">
        <ele>203.93688964844</ele>
        <time>2011-05-15T07:44:20Z</time>
      </trkpt>
      <trkpt lat="43.61267" lon="1.56574">
        <ele>202.49487304688</ele>
        <time>2011-05-15T07:44:22Z</time>
      </trkpt>
      <trkpt lat="43.61248" lon="1.56581">
        <ele>201.53356933594</ele>
        <time>2011-05-15T07:44:28Z</time>
      </trkpt>
      <trkpt lat="43.61237" lon="1.56586">
        <ele>201.53356933594</ele>
        <time>2011-05-15T07:44:32Z</time>
      </trkpt>
      <trkpt lat="43.61222" lon="1.56593">
        <ele>201.53356933594</ele>
        <time>2011-05-15T07:44:38Z</time>
      </trkpt>
      <trkpt lat="43.61211" lon="1.56601">
        <ele>203.45617675781</ele>
        <time>2011-05-15T07:44:43Z</time>
      </trkpt>
      <trkpt lat="43.61201" lon="1.56613">
        <ele>204.89807128906</ele>
        <time>2011-05-15T07:44:47Z</time>
      </trkpt>
      <trkpt lat="43.61193" lon="1.5663">
        <ele>206.82067871094</ele>
        <time>2011-05-15T07:44:52Z</time>
      </trkpt>
      <trkpt lat="43.61185" lon="1.56648">
        <ele>207.78210449219</ele>
        <time>2011-05-15T07:44:57Z</time>
      </trkpt>
      <trkpt lat="43.61177" lon="1.56671">
        <ele>209.22412109375</ele>
        <time>2011-05-15T07:45:03Z</time>
      </trkpt>
      <trkpt lat="43.6117" lon="1.56686">
        <ele>209.70483398438</ele>
        <time>2011-05-15T07:45:07Z</time>
      </trkpt>
      <trkpt lat="43.6116" lon="1.56705">
        <ele>210.666015625</ele>
        <time>2011-05-15T07:45:12Z</time>
      </trkpt>
      <trkpt lat="43.61154" lon="1.56724">
        <ele>210.18542480469</ele>
        <time>2011-05-15T07:45:17Z</time>
      </trkpt>
      <trkpt lat="43.61147" lon="1.56739">
        <ele>210.18542480469</ele>
        <time>2011-05-15T07:45:21Z</time>
      </trkpt>
      <trkpt lat="43.61139" lon="1.56754">
        <ele>210.18542480469</ele>
        <time>2011-05-15T07:45:25Z</time>
      </trkpt>
      <trkpt lat="43.61132" lon="1.56774">
        <ele>211.14672851562</ele>
        <time>2011-05-15T07:45:30Z</time>
      </trkpt>
      <trkpt lat="43.61124" lon="1.56793">
        <ele>212.58862304688</ele>
        <time>2011-05-15T07:45:35Z</time>
      </trkpt>
      <trkpt lat="43.61117" lon="1.56809">
        <ele>213.55004882812</ele>
        <time>2011-05-15T07:45:39Z</time>
      </trkpt>
      <trkpt lat="43.61108" lon="1.56832">
        <ele>214.03063964844</ele>
        <time>2011-05-15T07:45:45Z</time>
      </trkpt>
      <trkpt lat="43.61098" lon="1.56855">
        <ele>213.0693359375</ele>
        <time>2011-05-15T07:45:52Z</time>
      </trkpt>
      <trkpt lat="43.61094" lon="1.56872">
        <ele>211.14672851562</ele>
        <time>2011-05-15T07:45:57Z</time>
      </trkpt>
      <trkpt lat="43.61087" lon="1.56888">
        <ele>211.62744140625</ele>
        <time>2011-05-15T07:46:01Z</time>
      </trkpt>
      <trkpt lat="43.61081" lon="1.56902">
        <ele>212.58862304688</ele>
        <time>2011-05-15T07:46:05Z</time>
      </trkpt>
      <trkpt lat="43.61073" lon="1.56919">
        <ele>213.55004882812</ele>
        <time>2011-05-15T07:46:10Z</time>
      </trkpt>
      <trkpt lat="43.61067" lon="1.56934">
        <ele>214.51123046875</ele>
        <time>2011-05-15T07:46:14Z</time>
      </trkpt>
      <trkpt lat="43.6106" lon="1.56956">
        <ele>216.43395996094</ele>
        <time>2011-05-15T07:46:20Z</time>
      </trkpt>
      <trkpt lat="43.61053" lon="1.56974">
        <ele>217.39538574219</ele>
        <time>2011-05-15T07:46:25Z</time>
      </trkpt>
      <trkpt lat="43.61056" lon="1.56988">
        <ele>216.91467285156</ele>
        <time>2011-05-15T07:46:29Z</time>
      </trkpt>
      <trkpt lat="43.61066" lon="1.57002">
        <ele>217.8759765625</ele>
        <time>2011-05-15T07:46:34Z</time>
      </trkpt>
      <trkpt lat="43.61079" lon="1.57017">
        <ele>217.8759765625</ele>
        <time>2011-05-15T07:46:39Z</time>
      </trkpt>
      <trkpt lat="43.61099" lon="1.57038">
        <ele>219.79858398438</ele>
        <time>2011-05-15T07:46:47Z</time>
      </trkpt>
      <trkpt lat="43.61112" lon="1.57051">
        <ele>220.27917480469</ele>
        <time>2011-05-15T07:46:52Z</time>
      </trkpt>
      <trkpt lat="43.61125" lon="1.57063">
        <ele>220.75988769531</ele>
        <time>2011-05-15T07:46:57Z</time>
      </trkpt>
      <trkpt lat="43.61135" lon="1.57074">
        <ele>221.24060058594</ele>
        <time>2011-05-15T07:47:01Z</time>
      </trkpt>
      <trkpt lat="43.61145" lon="1.57085">
        <ele>222.20178222656</ele>
        <time>2011-05-15T07:47:05Z</time>
      </trkpt>
      <trkpt lat="43.6116" lon="1.571">
        <ele>224.60522460938</ele>
        <time>2011-05-15T07:47:11Z</time>
      </trkpt>
      <trkpt lat="43.61172" lon="1.57119">
        <ele>227.00854492188</ele>
        <time>2011-05-15T07:47:17Z</time>
      </trkpt>
      <trkpt lat="43.61179" lon="1.57131">
        <ele>228.93115234375</ele>
        <time>2011-05-15T07:47:21Z</time>
      </trkpt>
      <trkpt lat="43.61189" lon="1.57151">
        <ele>230.373046875</ele>
        <time>2011-05-15T07:47:27Z</time>
      </trkpt>
      <trkpt lat="43.61197" lon="1.57162">
        <ele>230.373046875</ele>
        <time>2011-05-15T07:47:31Z</time>
      </trkpt>
      <trkpt lat="43.61208" lon="1.57179">
        <ele>229.89233398438</ele>
        <time>2011-05-15T07:47:36Z</time>
      </trkpt>
      <trkpt lat="43.61209" lon="1.57196">
        <ele>229.89233398438</ele>
        <time>2011-05-15T07:47:40Z</time>
      </trkpt>
      <trkpt lat="43.61203" lon="1.57216">
        <ele>230.85375976562</ele>
        <time>2011-05-15T07:47:45Z</time>
      </trkpt>
      <trkpt lat="43.6119" lon="1.57243">
        <ele>230.373046875</ele>
        <time>2011-05-15T07:47:52Z</time>
      </trkpt>
      <trkpt lat="43.6118" lon="1.57266">
        <ele>230.373046875</ele>
        <time>2011-05-15T07:47:58Z</time>
      </trkpt>
      <trkpt lat="43.61169" lon="1.57288">
        <ele>231.33435058594</ele>
        <time>2011-05-15T07:48:04Z</time>
      </trkpt>
      <trkpt lat="43.61156" lon="1.5729">
        <ele>230.373046875</ele>
        <time>2011-05-15T07:48:08Z</time>
      </trkpt>
      <trkpt lat="43.61143" lon="1.57279">
        <ele>228.93115234375</ele>
        <time>2011-05-15T07:48:12Z</time>
      </trkpt>
      <trkpt lat="43.61123" lon="1.57262">
        <ele>227.9697265625</ele>
        <time>2011-05-15T07:48:18Z</time>
      </trkpt>
      <trkpt lat="43.61102" lon="1.57245">
        <ele>225.56652832031</ele>
        <time>2011-05-15T07:48:24Z</time>
      </trkpt>
      <trkpt lat="43.61083" lon="1.57233">
        <ele>220.27917480469</ele>
        <time>2011-05-15T07:48:30Z</time>
      </trkpt>
      <trkpt lat="43.61066" lon="1.57228">
        <ele>217.39538574219</ele>
        <time>2011-05-15T07:48:35Z</time>
      </trkpt>
      <trkpt lat="43.61047" lon="1.57219">
        <ele>212.58862304688</ele>
        <time>2011-05-15T07:48:41Z</time>
      </trkpt>
      <trkpt lat="43.61028" lon="1.57208">
        <ele>212.58862304688</ele>
        <time>2011-05-15T07:48:47Z</time>
      </trkpt>
      <trkpt lat="43.61013" lon="1.572">
        <ele>212.10803222656</ele>
        <time>2011-05-15T07:48:52Z</time>
      </trkpt>
      <trkpt lat="43.60995" lon="1.57193">
        <ele>213.0693359375</ele>
        <time>2011-05-15T07:48:57Z</time>
      </trkpt>
      <trkpt lat="43.60978" lon="1.57182">
        <ele>212.10803222656</ele>
        <time>2011-05-15T07:49:03Z</time>
      </trkpt>
      <trkpt lat="43.60963" lon="1.57172">
        <ele>213.55004882812</ele>
        <time>2011-05-15T07:49:08Z</time>
      </trkpt>
      <trkpt lat="43.60951" lon="1.57165">
        <ele>214.51123046875</ele>
        <time>2011-05-15T07:49:12Z</time>
      </trkpt>
      <trkpt lat="43.60948" lon="1.57163">
        <ele>214.51123046875</ele>
        <time>2011-05-15T07:49:13Z</time>
      </trkpt>
      <trkpt lat="43.60933" lon="1.57171">
        <ele>215.47265625</ele>
        <time>2011-05-15T07:49:18Z</time>
      </trkpt>
      <trkpt lat="43.60918" lon="1.5718">
        <ele>216.91467285156</ele>
        <time>2011-05-15T07:49:23Z</time>
      </trkpt>
      <trkpt lat="43.609" lon="1.57188">
        <ele>215.95324707031</ele>
        <time>2011-05-15T07:49:29Z</time>
      </trkpt>
      <trkpt lat="43.60884" lon="1.57194">
        <ele>216.91467285156</ele>
        <time>2011-05-15T07:49:34Z</time>
      </trkpt>
      <trkpt lat="43.60865" lon="1.57203">
        <ele>217.8759765625</ele>
        <time>2011-05-15T07:49:40Z</time>
      </trkpt>
      <trkpt lat="43.60849" lon="1.57207">
        <ele>219.31799316406</ele>
        <time>2011-05-15T07:49:45Z</time>
      </trkpt>
      <trkpt lat="43.60832" lon="1.57204">
        <ele>220.27917480469</ele>
        <time>2011-05-15T07:49:50Z</time>
      </trkpt>
      <trkpt lat="43.60819" lon="1.57198">
        <ele>219.79858398438</ele>
        <time>2011-05-15T07:49:54Z</time>
      </trkpt>
      <trkpt lat="43.60803" lon="1.57188">
        <ele>220.27917480469</ele>
        <time>2011-05-15T07:49:59Z</time>
      </trkpt>
      <trkpt lat="43.6079" lon="1.5718">
        <ele>219.79858398438</ele>
        <time>2011-05-15T07:50:03Z</time>
      </trkpt>
      <trkpt lat="43.60772" lon="1.57166">
        <ele>217.39538574219</ele>
        <time>2011-05-15T07:50:09Z</time>
      </trkpt>
      <trkpt lat="43.60753" lon="1.57152">
        <ele>216.91467285156</ele>
        <time>2011-05-15T07:50:15Z</time>
      </trkpt>
      <trkpt lat="43.60735" lon="1.57137">
        <ele>214.99194335938</ele>
        <time>2011-05-15T07:50:21Z</time>
      </trkpt>
      <trkpt lat="43.60716" lon="1.57122">
        <ele>211.14672851562</ele>
        <time>2011-05-15T07:50:27Z</time>
      </trkpt>
      <trkpt lat="43.60695" lon="1.57108">
        <ele>208.26281738281</ele>
        <time>2011-05-15T07:50:33Z</time>
      </trkpt>
      <trkpt lat="43.60671" lon="1.57093">
        <ele>202.97546386719</ele>
        <time>2011-05-15T07:50:39Z</time>
      </trkpt>
      <trkpt lat="43.60668" lon="1.5709">
        <ele>202.01428222656</ele>
        <time>2011-05-15T07:50:40Z</time>
      </trkpt>
      <trkpt lat="43.60649" lon="1.57077">
        <ele>196.72692871094</ele>
        <time>2011-05-15T07:50:45Z</time>
      </trkpt>
      <trkpt lat="43.60627" lon="1.57061">
        <ele>191.92028808594</ele>
        <time>2011-05-15T07:50:51Z</time>
      </trkpt>
      <trkpt lat="43.60606" lon="1.57045">
        <ele>187.59436035156</ele>
        <time>2011-05-15T07:50:57Z</time>
      </trkpt>
      <trkpt lat="43.60599" lon="1.5704">
        <ele>186.15246582031</ele>
        <time>2011-05-15T07:50:59Z</time>
      </trkpt>
      <trkpt lat="43.60578" lon="1.57024">
        <ele>181.82641601562</ele>
        <time>2011-05-15T07:51:05Z</time>
      </trkpt>
      <trkpt lat="43.60571" lon="1.57018">
        <ele>180.865234375</ele>
        <time>2011-05-15T07:51:07Z</time>
      </trkpt>
      <trkpt lat="43.60557" lon="1.56997">
        <ele>179.90380859375</ele>
        <time>2011-05-15T07:51:12Z</time>
      </trkpt>
      <trkpt lat="43.60556" lon="1.56992">
        <ele>180.38452148438</ele>
        <time>2011-05-15T07:51:13Z</time>
      </trkpt>
      <trkpt lat="43.60555" lon="1.56951">
        <ele>180.865234375</ele>
        <time>2011-05-15T07:51:21Z</time>
      </trkpt>
      <trkpt lat="43.60555" lon="1.56931">
        <ele>181.34582519531</ele>
        <time>2011-05-15T07:51:25Z</time>
      </trkpt>
      <trkpt lat="43.60556" lon="1.569">
        <ele>182.78784179688</ele>
        <time>2011-05-15T07:51:31Z</time>
      </trkpt>
      <trkpt lat="43.60557" lon="1.56875">
        <ele>183.26843261719</ele>
        <time>2011-05-15T07:51:36Z</time>
      </trkpt>
      <trkpt lat="43.6056" lon="1.56846">
        <ele>182.78784179688</ele>
        <time>2011-05-15T07:51:42Z</time>
      </trkpt>
      <trkpt lat="43.60563" lon="1.56829">
        <ele>182.30712890625</ele>
        <time>2011-05-15T07:51:46Z</time>
      </trkpt>
      <trkpt lat="43.60569" lon="1.56807">
        <ele>180.38452148438</ele>
        <time>2011-05-15T07:51:51Z</time>
      </trkpt>
      <trkpt lat="43.60575" lon="1.56791">
        <ele>177.98120117188</ele>
        <time>2011-05-15T07:51:55Z</time>
      </trkpt>
      <trkpt lat="43.60583" lon="1.56773">
        <ele>177.02001953125</ele>
        <time>2011-05-15T07:52:00Z</time>
      </trkpt>
      <trkpt lat="43.60592" lon="1.56752">
        <ele>176.05859375</ele>
        <time>2011-05-15T07:52:05Z</time>
      </trkpt>
      <trkpt lat="43.60601" lon="1.56726">
        <ele>176.05859375</ele>
        <time>2011-05-15T07:52:11Z</time>
      </trkpt>
      <trkpt lat="43.6061" lon="1.56701">
        <ele>176.05859375</ele>
        <time>2011-05-15T07:52:17Z</time>
      </trkpt>
      <trkpt lat="43.60619" lon="1.56675">
        <ele>175.57788085938</ele>
        <time>2011-05-15T07:52:23Z</time>
      </trkpt>
      <trkpt lat="43.60627" lon="1.56654">
        <ele>175.09729003906</ele>
        <time>2011-05-15T07:52:28Z</time>
      </trkpt>
      <trkpt lat="43.60637" lon="1.56629">
        <ele>174.13586425781</ele>
        <time>2011-05-15T07:52:34Z</time>
      </trkpt>
      <trkpt lat="43.60648" lon="1.56603">
        <ele>172.69396972656</ele>
        <time>2011-05-15T07:52:40Z</time>
      </trkpt>
      <trkpt lat="43.60656" lon="1.56581">
        <ele>172.21325683594</ele>
        <time>2011-05-15T07:52:45Z</time>
      </trkpt>
      <trkpt lat="43.60667" lon="1.56552">
        <ele>170.29064941406</ele>
        <time>2011-05-15T07:52:52Z</time>
      </trkpt>
      <trkpt lat="43.60675" lon="1.56531">
        <ele>170.77136230469</ele>
        <time>2011-05-15T07:52:57Z</time>
      </trkpt>
      <trkpt lat="43.6068" lon="1.56515">
        <ele>170.77136230469</ele>
        <time>2011-05-15T07:53:01Z</time>
      </trkpt>
      <trkpt lat="43.60689" lon="1.56489">
        <ele>169.32946777344</ele>
        <time>2011-05-15T07:53:07Z</time>
      </trkpt>
      <trkpt lat="43.60698" lon="1.56468">
        <ele>168.84875488281</ele>
        <time>2011-05-15T07:53:12Z</time>
      </trkpt>
      <trkpt lat="43.6071" lon="1.5644">
        <ele>166.92602539062</ele>
        <time>2011-05-15T07:53:19Z</time>
      </trkpt>
      <trkpt lat="43.60718" lon="1.56424">
        <ele>166.4453125</ele>
        <time>2011-05-15T07:53:23Z</time>
      </trkpt>
      <trkpt lat="43.60728" lon="1.56405">
        <ele>165.00341796875</ele>
        <time>2011-05-15T07:53:28Z</time>
      </trkpt>
      <trkpt lat="43.60736" lon="1.56384">
        <ele>165.00341796875</ele>
        <time>2011-05-15T07:53:33Z</time>
      </trkpt>
      <trkpt lat="43.60746" lon="1.56359">
        <ele>165.00341796875</ele>
        <time>2011-05-15T07:53:39Z</time>
      </trkpt>
      <trkpt lat="43.60757" lon="1.56336">
        <ele>164.04211425781</ele>
        <time>2011-05-15T07:53:45Z</time>
      </trkpt>
      <trkpt lat="43.60767" lon="1.56312">
        <ele>163.08081054688</ele>
        <time>2011-05-15T07:53:51Z</time>
      </trkpt>
      <trkpt lat="43.6078" lon="1.5628">
        <ele>163.08081054688</ele>
        <time>2011-05-15T07:53:59Z</time>
      </trkpt>
      <trkpt lat="43.60793" lon="1.56253">
        <ele>163.5615234375</ele>
        <time>2011-05-15T07:54:06Z</time>
      </trkpt>
      <trkpt lat="43.60801" lon="1.5623">
        <ele>164.04211425781</ele>
        <time>2011-05-15T07:54:12Z</time>
      </trkpt>
      <trkpt lat="43.6081" lon="1.56209">
        <ele>165.00341796875</ele>
        <time>2011-05-15T07:54:18Z</time>
      </trkpt>
      <trkpt lat="43.60816" lon="1.56193">
        <ele>165.96472167969</ele>
        <time>2011-05-15T07:54:23Z</time>
      </trkpt>
      <trkpt lat="43.60817" lon="1.56174">
        <ele>165.48413085938</ele>
        <time>2011-05-15T07:54:28Z</time>
      </trkpt>
      <trkpt lat="43.60812" lon="1.56156">
        <ele>165.96472167969</ele>
        <time>2011-05-15T07:54:33Z</time>
      </trkpt>
      <trkpt lat="43.60806" lon="1.5614">
        <ele>167.40673828125</ele>
        <time>2011-05-15T07:54:37Z</time>
      </trkpt>
      <trkpt lat="43.608" lon="1.56121">
        <ele>167.40673828125</ele>
        <time>2011-05-15T07:54:42Z</time>
      </trkpt>
      <trkpt lat="43.60793" lon="1.56099">
        <ele>166.4453125</ele>
        <time>2011-05-15T07:54:48Z</time>
      </trkpt>
      <trkpt lat="43.60786" lon="1.56075">
        <ele>165.96472167969</ele>
        <time>2011-05-15T07:54:54Z</time>
      </trkpt>
      <trkpt lat="43.60779" lon="1.5605">
        <ele>165.96472167969</ele>
        <time>2011-05-15T07:55:00Z</time>
      </trkpt>
      <trkpt lat="43.60772" lon="1.5603">
        <ele>165.96472167969</ele>
        <time>2011-05-15T07:55:05Z</time>
      </trkpt>
      <trkpt lat="43.60764" lon="1.56005">
        <ele>167.88732910156</ele>
        <time>2011-05-15T07:55:11Z</time>
      </trkpt>
      <trkpt lat="43.60755" lon="1.55985">
        <ele>170.77136230469</ele>
        <time>2011-05-15T07:55:16Z</time>
      </trkpt>
      <trkpt lat="43.60745" lon="1.55963">
        <ele>169.81005859375</ele>
        <time>2011-05-15T07:55:22Z</time>
      </trkpt>
      <trkpt lat="43.60732" lon="1.55933">
        <ele>168.84875488281</ele>
        <time>2011-05-15T07:55:30Z</time>
      </trkpt>
      <trkpt lat="43.60721" lon="1.55912">
        <ele>167.88732910156</ele>
        <time>2011-05-15T07:55:36Z</time>
      </trkpt>
      <trkpt lat="43.60709" lon="1.55891">
        <ele>168.36804199219</ele>
        <time>2011-05-15T07:55:42Z</time>
      </trkpt>
      <trkpt lat="43.60699" lon="1.55873">
        <ele>166.92602539062</ele>
        <time>2011-05-15T07:55:47Z</time>
      </trkpt>
      <trkpt lat="43.60689" lon="1.55856">
        <ele>165.96472167969</ele>
        <time>2011-05-15T07:55:52Z</time>
      </trkpt>
      <trkpt lat="43.60686" lon="1.55828">
        <ele>166.4453125</ele>
        <time>2011-05-15T07:55:58Z</time>
      </trkpt>
      <trkpt lat="43.60685" lon="1.55801">
        <ele>166.4453125</ele>
        <time>2011-05-15T07:56:04Z</time>
      </trkpt>
      <trkpt lat="43.60684" lon="1.55773">
        <ele>165.96472167969</ele>
        <time>2011-05-15T07:56:10Z</time>
      </trkpt>
      <trkpt lat="43.60685" lon="1.55745">
        <ele>166.92602539062</ele>
        <time>2011-05-15T07:56:16Z</time>
      </trkpt>
      <trkpt lat="43.60688" lon="1.55719">
        <ele>166.92602539062</ele>
        <time>2011-05-15T07:56:22Z</time>
      </trkpt>
      <trkpt lat="43.60693" lon="1.55702">
        <ele>166.92602539062</ele>
        <time>2011-05-15T07:56:26Z</time>
      </trkpt>
      <trkpt lat="43.60702" lon="1.55684">
        <ele>165.96472167969</ele>
        <time>2011-05-15T07:56:31Z</time>
      </trkpt>
      <trkpt lat="43.60714" lon="1.55658">
        <ele>165.00341796875</ele>
        <time>2011-05-15T07:56:38Z</time>
      </trkpt>
      <trkpt lat="43.60725" lon="1.55635">
        <ele>164.52270507812</ele>
        <time>2011-05-15T07:56:44Z</time>
      </trkpt>
      <trkpt lat="43.60737" lon="1.55612">
        <ele>163.5615234375</ele>
        <time>2011-05-15T07:56:50Z</time>
      </trkpt>
      <trkpt lat="43.60749" lon="1.55591">
        <ele>162.60009765625</ele>
        <time>2011-05-15T07:56:56Z</time>
      </trkpt>
      <trkpt lat="43.6076" lon="1.55569">
        <ele>162.11950683594</ele>
        <time>2011-05-15T07:57:02Z</time>
      </trkpt>
      <trkpt lat="43.60771" lon="1.55547">
        <ele>161.63891601562</ele>
        <time>2011-05-15T07:57:08Z</time>
      </trkpt>
      <trkpt lat="43.60784" lon="1.55521">
        <ele>161.63891601562</ele>
        <time>2011-05-15T07:57:15Z</time>
      </trkpt>
      <trkpt lat="43.60798" lon="1.55494">
        <ele>162.60009765625</ele>
        <time>2011-05-15T07:57:22Z</time>
      </trkpt>
      <trkpt lat="43.60806" lon="1.55481">
        <ele>161.63891601562</ele>
        <time>2011-05-15T07:57:26Z</time>
      </trkpt>
      <trkpt lat="43.60816" lon="1.55462">
        <ele>161.158203125</ele>
        <time>2011-05-15T07:57:31Z</time>
      </trkpt>
      <trkpt lat="43.60825" lon="1.55443">
        <ele>159.23547363281</ele>
        <time>2011-05-15T07:57:36Z</time>
      </trkpt>
      <trkpt lat="43.60836" lon="1.55418">
        <ele>157.79357910156</ele>
        <time>2011-05-15T07:57:42Z</time>
      </trkpt>
      <trkpt lat="43.60847" lon="1.55399">
        <ele>157.79357910156</ele>
        <time>2011-05-15T07:57:47Z</time>
      </trkpt>
      <trkpt lat="43.60859" lon="1.55377">
        <ele>156.3515625</ele>
        <time>2011-05-15T07:57:53Z</time>
      </trkpt>
      <trkpt lat="43.60871" lon="1.55355">
        <ele>155.39025878906</ele>
        <time>2011-05-15T07:57:59Z</time>
      </trkpt>
      <trkpt lat="43.60883" lon="1.5533">
        <ele>155.87097167969</ele>
        <time>2011-05-15T07:58:06Z</time>
      </trkpt>
      <trkpt lat="43.60894" lon="1.55308">
        <ele>155.87097167969</ele>
        <time>2011-05-15T07:58:12Z</time>
      </trkpt>
      <trkpt lat="43.60903" lon="1.55289">
        <ele>156.3515625</ele>
        <time>2011-05-15T07:58:17Z</time>
      </trkpt>
      <trkpt lat="43.60914" lon="1.55267">
        <ele>157.31286621094</ele>
        <time>2011-05-15T07:58:23Z</time>
      </trkpt>
      <trkpt lat="43.60921" lon="1.55252">
        <ele>156.83215332031</ele>
        <time>2011-05-15T07:58:27Z</time>
      </trkpt>
      <trkpt lat="43.60933" lon="1.55231">
        <ele>155.87097167969</ele>
        <time>2011-05-15T07:58:33Z</time>
      </trkpt>
      <trkpt lat="43.60945" lon="1.55209">
        <ele>155.87097167969</ele>
        <time>2011-05-15T07:58:39Z</time>
      </trkpt>
      <trkpt lat="43.60954" lon="1.55195">
        <ele>155.39025878906</ele>
        <time>2011-05-15T07:58:43Z</time>
      </trkpt>
      <trkpt lat="43.60964" lon="1.55178">
        <ele>155.39025878906</ele>
        <time>2011-05-15T07:58:48Z</time>
      </trkpt>
      <trkpt lat="43.60974" lon="1.55159">
        <ele>155.39025878906</ele>
        <time>2011-05-15T07:58:53Z</time>
      </trkpt>
      <trkpt lat="43.60985" lon="1.55138">
        <ele>155.39025878906</ele>
        <time>2011-05-15T07:58:59Z</time>
      </trkpt>
      <trkpt lat="43.60995" lon="1.55118">
        <ele>155.39025878906</ele>
        <time>2011-05-15T07:59:04Z</time>
      </trkpt>
      <trkpt lat="43.61008" lon="1.55086">
        <ele>155.39025878906</ele>
        <time>2011-05-15T07:59:12Z</time>
      </trkpt>
      <trkpt lat="43.6102" lon="1.55059">
        <ele>153.46765136719</ele>
        <time>2011-05-15T07:59:19Z</time>
      </trkpt>
      <trkpt lat="43.61026" lon="1.55048">
        <ele>152.02575683594</ele>
        <time>2011-05-15T07:59:23Z</time>
      </trkpt>
      <trkpt lat="43.61033" lon="1.55035">
        <ele>150.58361816406</ele>
        <time>2011-05-15T07:59:27Z</time>
      </trkpt>
      <trkpt lat="43.61045" lon="1.55013">
        <ele>150.10302734375</ele>
        <time>2011-05-15T07:59:33Z</time>
      </trkpt>
      <trkpt lat="43.61058" lon="1.54992">
        <ele>150.58361816406</ele>
        <time>2011-05-15T07:59:39Z</time>
      </trkpt>
      <trkpt lat="43.61074" lon="1.54966">
        <ele>154.90954589844</ele>
        <time>2011-05-15T07:59:46Z</time>
      </trkpt>
      <trkpt lat="43.61083" lon="1.54952">
        <ele>156.3515625</ele>
        <time>2011-05-15T07:59:50Z</time>
      </trkpt>
      <trkpt lat="43.61094" lon="1.54936">
        <ele>156.3515625</ele>
        <time>2011-05-15T07:59:55Z</time>
      </trkpt>
      <trkpt lat="43.61104" lon="1.54917">
        <ele>156.83215332031</ele>
        <time>2011-05-15T08:00:00Z</time>
      </trkpt>
      <trkpt lat="43.61114" lon="1.54899">
        <ele>156.83215332031</ele>
        <time>2011-05-15T08:00:05Z</time>
      </trkpt>
      <trkpt lat="43.61127" lon="1.54873">
        <ele>157.31286621094</ele>
        <time>2011-05-15T08:00:12Z</time>
      </trkpt>
      <trkpt lat="43.61139" lon="1.54851">
        <ele>157.31286621094</ele>
        <time>2011-05-15T08:00:18Z</time>
      </trkpt>
      <trkpt lat="43.6115" lon="1.54829">
        <ele>157.79357910156</ele>
        <time>2011-05-15T08:00:24Z</time>
      </trkpt>
      <trkpt lat="43.61159" lon="1.54812">
        <ele>159.23547363281</ele>
        <time>2011-05-15T08:00:29Z</time>
      </trkpt>
      <trkpt lat="43.61166" lon="1.54796">
        <ele>159.71618652344</ele>
        <time>2011-05-15T08:00:33Z</time>
      </trkpt>
      <trkpt lat="43.61175" lon="1.54778">
        <ele>161.63891601562</ele>
        <time>2011-05-15T08:00:38Z</time>
      </trkpt>
      <trkpt lat="43.61188" lon="1.54753">
        <ele>161.63891601562</ele>
        <time>2011-05-15T08:00:45Z</time>
      </trkpt>
      <trkpt lat="43.61201" lon="1.54727">
        <ele>160.67749023438</ele>
        <time>2011-05-15T08:00:52Z</time>
      </trkpt>
      <trkpt lat="43.61213" lon="1.54711">
        <ele>159.71618652344</ele>
        <time>2011-05-15T08:00:57Z</time>
      </trkpt>
      <trkpt lat="43.61229" lon="1.547">
        <ele>159.23547363281</ele>
        <time>2011-05-15T08:01:02Z</time>
      </trkpt>
      <trkpt lat="43.61249" lon="1.54696">
        <ele>157.79357910156</ele>
        <time>2011-05-15T08:01:08Z</time>
      </trkpt>
      <trkpt lat="43.6126" lon="1.54697">
        <ele>157.79357910156</ele>
        <time>2011-05-15T08:01:11Z</time>
      </trkpt>
      <trkpt lat="43.61277" lon="1.54718">
        <ele>157.79357910156</ele>
        <time>2011-05-15T08:01:17Z</time>
      </trkpt>
      <trkpt lat="43.61294" lon="1.54745">
        <ele>159.71618652344</ele>
        <time>2011-05-15T08:01:24Z</time>
      </trkpt>
      <trkpt lat="43.61309" lon="1.54765">
        <ele>160.67749023438</ele>
        <time>2011-05-15T08:01:30Z</time>
      </trkpt>
      <trkpt lat="43.61327" lon="1.54788">
        <ele>161.63891601562</ele>
        <time>2011-05-15T08:01:37Z</time>
      </trkpt>
      <trkpt lat="43.61342" lon="1.54812">
        <ele>162.11950683594</ele>
        <time>2011-05-15T08:01:44Z</time>
      </trkpt>
      <trkpt lat="43.61356" lon="1.54832">
        <ele>161.63891601562</ele>
        <time>2011-05-15T08:01:50Z</time>
      </trkpt>
      <trkpt lat="43.61367" lon="1.54848">
        <ele>161.158203125</ele>
        <time>2011-05-15T08:01:55Z</time>
      </trkpt>
      <trkpt lat="43.61376" lon="1.5486">
        <ele>162.60009765625</ele>
        <time>2011-05-15T08:01:59Z</time>
      </trkpt>
      <trkpt lat="43.61386" lon="1.54874">
        <ele>162.60009765625</ele>
        <time>2011-05-15T08:02:04Z</time>
      </trkpt>
      <trkpt lat="43.61396" lon="1.54888">
        <ele>161.63891601562</ele>
        <time>2011-05-15T08:02:09Z</time>
      </trkpt>
      <trkpt lat="43.61408" lon="1.54907">
        <ele>163.08081054688</ele>
        <time>2011-05-15T08:02:16Z</time>
      </trkpt>
      <trkpt lat="43.61417" lon="1.5492">
        <ele>164.04211425781</ele>
        <time>2011-05-15T08:02:21Z</time>
      </trkpt>
      <trkpt lat="43.61425" lon="1.54935">
        <ele>164.04211425781</ele>
        <time>2011-05-15T08:02:26Z</time>
      </trkpt>
      <trkpt lat="43.61433" lon="1.54954">
        <ele>165.48413085938</ele>
        <time>2011-05-15T08:02:32Z</time>
      </trkpt>
      <trkpt lat="43.61439" lon="1.54971">
        <ele>165.00341796875</ele>
        <time>2011-05-15T08:02:37Z</time>
      </trkpt>
      <trkpt lat="43.61443" lon="1.54988">
        <ele>166.4453125</ele>
        <time>2011-05-15T08:02:42Z</time>
      </trkpt>
      <trkpt lat="43.61446" lon="1.55007">
        <ele>167.40673828125</ele>
        <time>2011-05-15T08:02:47Z</time>
      </trkpt>
      <trkpt lat="43.61446" lon="1.55026">
        <ele>169.81005859375</ele>
        <time>2011-05-15T08:02:52Z</time>
      </trkpt>
      <trkpt lat="43.61449" lon="1.5505">
        <ele>173.6552734375</ele>
        <time>2011-05-15T08:02:58Z</time>
      </trkpt>
      <trkpt lat="43.61447" lon="1.55072">
        <ele>175.09729003906</ele>
        <time>2011-05-15T08:03:04Z</time>
      </trkpt>
      <trkpt lat="43.61444" lon="1.5509">
        <ele>175.57788085938</ele>
        <time>2011-05-15T08:03:09Z</time>
      </trkpt>
      <trkpt lat="43.61441" lon="1.55112">
        <ele>176.53930664062</ele>
        <time>2011-05-15T08:03:15Z</time>
      </trkpt>
      <trkpt lat="43.61437" lon="1.55125">
        <ele>178.4619140625</ele>
        <time>2011-05-15T08:03:19Z</time>
      </trkpt>
      <trkpt lat="43.61437" lon="1.55143">
        <ele>178.94262695312</ele>
        <time>2011-05-15T08:03:24Z</time>
      </trkpt>
      <trkpt lat="43.61433" lon="1.55163">
        <ele>180.38452148438</ele>
        <time>2011-05-15T08:03:30Z</time>
      </trkpt>
      <trkpt lat="43.61432" lon="1.55181">
        <ele>182.30712890625</ele>
        <time>2011-05-15T08:03:35Z</time>
      </trkpt>
      <trkpt lat="43.61429" lon="1.55201">
        <ele>183.7490234375</ele>
        <time>2011-05-15T08:03:41Z</time>
      </trkpt>
      <trkpt lat="43.61424" lon="1.55224">
        <ele>186.63317871094</ele>
        <time>2011-05-15T08:03:47Z</time>
      </trkpt>
      <trkpt lat="43.6142" lon="1.55238">
        <ele>186.15246582031</ele>
        <time>2011-05-15T08:03:51Z</time>
      </trkpt>
      <trkpt lat="43.61418" lon="1.55251">
        <ele>185.67175292969</ele>
        <time>2011-05-15T08:03:55Z</time>
      </trkpt>
      <trkpt lat="43.61414" lon="1.55268">
        <ele>188.55578613281</ele>
        <time>2011-05-15T08:04:00Z</time>
      </trkpt>
      <trkpt lat="43.61409" lon="1.55288">
        <ele>190.958984375</ele>
        <time>2011-05-15T08:04:06Z</time>
      </trkpt>
      <trkpt lat="43.61407" lon="1.55305">
        <ele>193.3623046875</ele>
        <time>2011-05-15T08:04:11Z</time>
      </trkpt>
      <trkpt lat="43.61401" lon="1.55326">
        <ele>195.28491210938</ele>
        <time>2011-05-15T08:04:17Z</time>
      </trkpt>
      <trkpt lat="43.61394" lon="1.5535">
        <ele>197.68823242188</ele>
        <time>2011-05-15T08:04:24Z</time>
      </trkpt>
      <trkpt lat="43.61395" lon="1.55365">
        <ele>197.20751953125</ele>
        <time>2011-05-15T08:04:28Z</time>
      </trkpt>
      <trkpt lat="43.61398" lon="1.55379">
        <ele>198.1689453125</ele>
        <time>2011-05-15T08:04:32Z</time>
      </trkpt>
      <trkpt lat="43.61407" lon="1.55395">
        <ele>198.64953613281</ele>
        <time>2011-05-15T08:04:37Z</time>
      </trkpt>
      <trkpt lat="43.61421" lon="1.55415">
        <ele>198.64953613281</ele>
        <time>2011-05-15T08:04:44Z</time>
      </trkpt>
      <trkpt lat="43.61433" lon="1.55431">
        <ele>199.13012695312</ele>
        <time>2011-05-15T08:04:49Z</time>
      </trkpt>
      <trkpt lat="43.61443" lon="1.55448">
        <ele>198.64953613281</ele>
        <time>2011-05-15T08:04:54Z</time>
      </trkpt>
      <trkpt lat="43.61449" lon="1.55468">
        <ele>200.09167480469</ele>
        <time>2011-05-15T08:04:59Z</time>
      </trkpt>
      <trkpt lat="43.61453" lon="1.55494">
        <ele>200.09167480469</ele>
        <time>2011-05-15T08:05:05Z</time>
      </trkpt>
      <trkpt lat="43.61453" lon="1.55521">
        <ele>199.61083984375</ele>
        <time>2011-05-15T08:05:11Z</time>
      </trkpt>
      <trkpt lat="43.61452" lon="1.55543">
        <ele>200.572265625</ele>
        <time>2011-05-15T08:05:16Z</time>
      </trkpt>
      <trkpt lat="43.6145" lon="1.55565">
        <ele>202.01428222656</ele>
        <time>2011-05-15T08:05:21Z</time>
      </trkpt>
      <trkpt lat="43.61449" lon="1.55588">
        <ele>202.01428222656</ele>
        <time>2011-05-15T08:05:26Z</time>
      </trkpt>
      <trkpt lat="43.61448" lon="1.55611">
        <ele>202.97546386719</ele>
        <time>2011-05-15T08:05:31Z</time>
      </trkpt>
      <trkpt lat="43.61446" lon="1.55629">
        <ele>203.93688964844</ele>
        <time>2011-05-15T08:05:35Z</time>
      </trkpt>
      <trkpt lat="43.61443" lon="1.55647">
        <ele>203.93688964844</ele>
        <time>2011-05-15T08:05:39Z</time>
      </trkpt>
      <trkpt lat="43.61441" lon="1.55674">
        <ele>205.37878417969</ele>
        <time>2011-05-15T08:05:45Z</time>
      </trkpt>
      <trkpt lat="43.61434" lon="1.55704">
        <ele>206.82067871094</ele>
        <time>2011-05-15T08:05:52Z</time>
      </trkpt>
      <trkpt lat="43.61428" lon="1.55729">
        <ele>206.34008789062</ele>
        <time>2011-05-15T08:05:58Z</time>
      </trkpt>
      <trkpt lat="43.61422" lon="1.55754">
        <ele>204.41748046875</ele>
        <time>2011-05-15T08:06:04Z</time>
      </trkpt>
      <trkpt lat="43.61417" lon="1.55775">
        <ele>203.45617675781</ele>
        <time>2011-05-15T08:06:09Z</time>
      </trkpt>
      <trkpt lat="43.61411" lon="1.55795">
        <ele>203.93688964844</ele>
        <time>2011-05-15T08:06:14Z</time>
      </trkpt>
      <trkpt lat="43.61406" lon="1.55819">
        <ele>204.41748046875</ele>
        <time>2011-05-15T08:06:20Z</time>
      </trkpt>
      <trkpt lat="43.61401" lon="1.5584">
        <ele>204.89807128906</ele>
        <time>2011-05-15T08:06:25Z</time>
      </trkpt>
      <trkpt lat="43.61396" lon="1.55867">
        <ele>206.34008789062</ele>
        <time>2011-05-15T08:06:31Z</time>
      </trkpt>
      <trkpt lat="43.61393" lon="1.55888">
        <ele>206.82067871094</ele>
        <time>2011-05-15T08:06:36Z</time>
      </trkpt>
      <trkpt lat="43.61389" lon="1.55908">
        <ele>206.82067871094</ele>
        <time>2011-05-15T08:06:41Z</time>
      </trkpt>
      <trkpt lat="43.61387" lon="1.55924">
        <ele>206.82067871094</ele>
        <time>2011-05-15T08:06:45Z</time>
      </trkpt>
      <trkpt lat="43.61383" lon="1.55944">
        <ele>207.30139160156</ele>
        <time>2011-05-15T08:06:50Z</time>
      </trkpt>
      <trkpt lat="43.6138" lon="1.55964">
        <ele>207.78210449219</ele>
        <time>2011-05-15T08:06:55Z</time>
      </trkpt>
      <trkpt lat="43.61382" lon="1.55983">
        <ele>206.34008789062</ele>
        <time>2011-05-15T08:07:00Z</time>
      </trkpt>
      <trkpt lat="43.61386" lon="1.56003">
        <ele>204.41748046875</ele>
        <time>2011-05-15T08:07:05Z</time>
      </trkpt>
      <trkpt lat="43.61394" lon="1.56026">
        <ele>203.93688964844</ele>
        <time>2011-05-15T08:07:11Z</time>
      </trkpt>
      <trkpt lat="43.61402" lon="1.56041">
        <ele>204.41748046875</ele>
        <time>2011-05-15T08:07:15Z</time>
      </trkpt>
      <trkpt lat="43.6141" lon="1.56058">
        <ele>205.37878417969</ele>
        <time>2011-05-15T08:07:20Z</time>
      </trkpt>
      <trkpt lat="43.6142" lon="1.56079">
        <ele>204.41748046875</ele>
        <time>2011-05-15T08:07:26Z</time>
      </trkpt>
      <trkpt lat="43.6143" lon="1.56099">
        <ele>206.82067871094</ele>
        <time>2011-05-15T08:07:32Z</time>
      </trkpt>
      <trkpt lat="43.61441" lon="1.5612">
        <ele>208.74340820312</ele>
        <time>2011-05-15T08:07:38Z</time>
      </trkpt>
      <trkpt lat="43.61449" lon="1.56133">
        <ele>208.74340820312</ele>
        <time>2011-05-15T08:07:42Z</time>
      </trkpt>
      <trkpt lat="43.61456" lon="1.56148">
        <ele>210.18542480469</ele>
        <time>2011-05-15T08:07:46Z</time>
      </trkpt>
      <trkpt lat="43.61464" lon="1.56168">
        <ele>209.70483398438</ele>
        <time>2011-05-15T08:07:51Z</time>
      </trkpt>
      <trkpt lat="43.6147" lon="1.5619">
        <ele>211.62744140625</ele>
        <time>2011-05-15T08:07:56Z</time>
      </trkpt>
      <trkpt lat="43.61473" lon="1.56213">
        <ele>212.58862304688</ele>
        <time>2011-05-15T08:08:01Z</time>
      </trkpt>
      <trkpt lat="43.61471" lon="1.56238">
        <ele>213.55004882812</ele>
        <time>2011-05-15T08:08:07Z</time>
      </trkpt>
      <trkpt lat="43.61468" lon="1.56259">
        <ele>213.55004882812</ele>
        <time>2011-05-15T08:08:12Z</time>
      </trkpt>
      <trkpt lat="43.61464" lon="1.56285">
        <ele>214.51123046875</ele>
        <time>2011-05-15T08:08:18Z</time>
      </trkpt>
      <trkpt lat="43.61461" lon="1.56306">
        <ele>213.55004882812</ele>
        <time>2011-05-15T08:08:23Z</time>
      </trkpt>
      <trkpt lat="43.61456" lon="1.56331">
        <ele>215.47265625</ele>
        <time>2011-05-15T08:08:29Z</time>
      </trkpt>
      <trkpt lat="43.61453" lon="1.56356">
        <ele>215.47265625</ele>
        <time>2011-05-15T08:08:35Z</time>
      </trkpt>
      <trkpt lat="43.61449" lon="1.56382">
        <ele>215.47265625</ele>
        <time>2011-05-15T08:08:41Z</time>
      </trkpt>
      <trkpt lat="43.61445" lon="1.56403">
        <ele>214.99194335938</ele>
        <time>2011-05-15T08:08:46Z</time>
      </trkpt>
      <trkpt lat="43.61442" lon="1.5642">
        <ele>214.51123046875</ele>
        <time>2011-05-15T08:08:50Z</time>
      </trkpt>
      <trkpt lat="43.61438" lon="1.56437">
        <ele>214.99194335938</ele>
        <time>2011-05-15T08:08:54Z</time>
      </trkpt>
      <trkpt lat="43.61435" lon="1.56458">
        <ele>215.95324707031</ele>
        <time>2011-05-15T08:08:59Z</time>
      </trkpt>
      <trkpt lat="43.61431" lon="1.5648">
        <ele>214.51123046875</ele>
        <time>2011-05-15T08:09:04Z</time>
      </trkpt>
      <trkpt lat="43.61428" lon="1.56497">
        <ele>214.51123046875</ele>
        <time>2011-05-15T08:09:08Z</time>
      </trkpt>
      <trkpt lat="43.61423" lon="1.56523">
        <ele>214.99194335938</ele>
        <time>2011-05-15T08:09:14Z</time>
      </trkpt>
      <trkpt lat="43.61419" lon="1.56543">
        <ele>215.95324707031</ele>
        <time>2011-05-15T08:09:19Z</time>
      </trkpt>
      <trkpt lat="43.61415" lon="1.5656">
        <ele>216.91467285156</ele>
        <time>2011-05-15T08:09:23Z</time>
      </trkpt>
      <trkpt lat="43.61411" lon="1.56583">
        <ele>218.35656738281</ele>
        <time>2011-05-15T08:09:28Z</time>
      </trkpt>
      <trkpt lat="43.61404" lon="1.56613">
        <ele>216.91467285156</ele>
        <time>2011-05-15T08:09:35Z</time>
      </trkpt>
      <trkpt lat="43.61401" lon="1.56636">
        <ele>216.91467285156</ele>
        <time>2011-05-15T08:09:40Z</time>
      </trkpt>
      <trkpt lat="43.61395" lon="1.56663">
        <ele>218.83728027344</ele>
        <time>2011-05-15T08:09:46Z</time>
      </trkpt>
      <trkpt lat="43.6139" lon="1.56684">
        <ele>218.83728027344</ele>
        <time>2011-05-15T08:09:51Z</time>
      </trkpt>
      <trkpt lat="43.61383" lon="1.5671">
        <ele>221.24060058594</ele>
        <time>2011-05-15T08:09:57Z</time>
      </trkpt>
      <trkpt lat="43.61378" lon="1.56735">
        <ele>219.79858398438</ele>
        <time>2011-05-15T08:10:03Z</time>
      </trkpt>
      <trkpt lat="43.61375" lon="1.56753">
        <ele>218.83728027344</ele>
        <time>2011-05-15T08:10:07Z</time>
      </trkpt>
      <trkpt lat="43.6137" lon="1.56778">
        <ele>218.83728027344</ele>
        <time>2011-05-15T08:10:13Z</time>
      </trkpt>
      <trkpt lat="43.61365" lon="1.56799">
        <ele>219.31799316406</ele>
        <time>2011-05-15T08:10:18Z</time>
      </trkpt>
      <trkpt lat="43.61361" lon="1.5682">
        <ele>218.83728027344</ele>
        <time>2011-05-15T08:10:23Z</time>
      </trkpt>
      <trkpt lat="43.61357" lon="1.56849">
        <ele>218.83728027344</ele>
        <time>2011-05-15T08:10:30Z</time>
      </trkpt>
      <trkpt lat="43.61347" lon="1.56871">
        <ele>218.35656738281</ele>
        <time>2011-05-15T08:10:36Z</time>
      </trkpt>
      <trkpt lat="43.61336" lon="1.56896">
        <ele>218.35656738281</ele>
        <time>2011-05-15T08:10:43Z</time>
      </trkpt>
      <trkpt lat="43.61327" lon="1.56919">
        <ele>217.8759765625</ele>
        <time>2011-05-15T08:10:49Z</time>
      </trkpt>
      <trkpt lat="43.61319" lon="1.56938">
        <ele>218.83728027344</ele>
        <time>2011-05-15T08:10:54Z</time>
      </trkpt>
      <trkpt lat="43.61309" lon="1.56959">
        <ele>218.83728027344</ele>
        <time>2011-05-15T08:11:00Z</time>
      </trkpt>
      <trkpt lat="43.61299" lon="1.56982">
        <ele>219.31799316406</ele>
        <time>2011-05-15T08:11:06Z</time>
      </trkpt>
      <trkpt lat="43.61291" lon="1.57001">
        <ele>219.79858398438</ele>
        <time>2011-05-15T08:11:11Z</time>
      </trkpt>
      <trkpt lat="43.61283" lon="1.57021">
        <ele>219.79858398438</ele>
        <time>2011-05-15T08:11:16Z</time>
      </trkpt>
      <trkpt lat="43.61275" lon="1.57041">
        <ele>219.79858398438</ele>
        <time>2011-05-15T08:11:21Z</time>
      </trkpt>
      <trkpt lat="43.61266" lon="1.5706">
        <ele>220.27917480469</ele>
        <time>2011-05-15T08:11:26Z</time>
      </trkpt>
      <trkpt lat="43.61258" lon="1.57079">
        <ele>220.75988769531</ele>
        <time>2011-05-15T08:11:31Z</time>
      </trkpt>
      <trkpt lat="43.61248" lon="1.57106">
        <ele>220.75988769531</ele>
        <time>2011-05-15T08:11:38Z</time>
      </trkpt>
      <trkpt lat="43.61239" lon="1.57128">
        <ele>220.27917480469</ele>
        <time>2011-05-15T08:11:44Z</time>
      </trkpt>
      <trkpt lat="43.6123" lon="1.57151">
        <ele>220.27917480469</ele>
        <time>2011-05-15T08:11:50Z</time>
      </trkpt>
      <trkpt lat="43.61221" lon="1.57174">
        <ele>221.24060058594</ele>
        <time>2011-05-15T08:11:56Z</time>
      </trkpt>
      <trkpt lat="43.61212" lon="1.57193">
        <ele>221.72119140625</ele>
        <time>2011-05-15T08:12:01Z</time>
      </trkpt>
      <trkpt lat="43.61202" lon="1.57213">
        <ele>221.72119140625</ele>
        <time>2011-05-15T08:12:07Z</time>
      </trkpt>
      <trkpt lat="43.61193" lon="1.57232">
        <ele>222.20178222656</ele>
        <time>2011-05-15T08:12:12Z</time>
      </trkpt>
      <trkpt lat="43.61185" lon="1.57251">
        <ele>223.16320800781</ele>
        <time>2011-05-15T08:12:17Z</time>
      </trkpt>
      <trkpt lat="43.61174" lon="1.57276">
        <ele>223.64379882812</ele>
        <time>2011-05-15T08:12:23Z</time>
      </trkpt>
      <trkpt lat="43.61167" lon="1.57297">
        <ele>224.12451171875</ele>
        <time>2011-05-15T08:12:28Z</time>
      </trkpt>
      <trkpt lat="43.61153" lon="1.57323">
        <ele>224.60522460938</ele>
        <time>2011-05-15T08:12:35Z</time>
      </trkpt>
      <trkpt lat="43.61144" lon="1.57341">
        <ele>225.0859375</ele>
        <time>2011-05-15T08:12:40Z</time>
      </trkpt>
      <trkpt lat="43.61131" lon="1.57366">
        <ele>225.0859375</ele>
        <time>2011-05-15T08:12:47Z</time>
      </trkpt>
      <trkpt lat="43.61124" lon="1.5738">
        <ele>224.12451171875</ele>
        <time>2011-05-15T08:12:51Z</time>
      </trkpt>
      <trkpt lat="43.61117" lon="1.57399">
        <ele>226.04711914062</ele>
        <time>2011-05-15T08:12:56Z</time>
      </trkpt>
      <trkpt lat="43.61112" lon="1.57416">
        <ele>226.52783203125</ele>
        <time>2011-05-15T08:13:00Z</time>
      </trkpt>
      <trkpt lat="43.61117" lon="1.57436">
        <ele>226.04711914062</ele>
        <time>2011-05-15T08:13:05Z</time>
      </trkpt>
      <trkpt lat="43.61128" lon="1.57446">
        <ele>227.00854492188</ele>
        <time>2011-05-15T08:13:09Z</time>
      </trkpt>
      <trkpt lat="43.61151" lon="1.57462">
        <ele>225.0859375</ele>
        <time>2011-05-15T08:13:16Z</time>
      </trkpt>
      <trkpt lat="43.6117" lon="1.57475">
        <ele>222.68249511719</ele>
        <time>2011-05-15T08:13:22Z</time>
      </trkpt>
      <trkpt lat="43.61193" lon="1.57491">
        <ele>220.27917480469</ele>
        <time>2011-05-15T08:13:29Z</time>
      </trkpt>
      <trkpt lat="43.61211" lon="1.57505">
        <ele>218.83728027344</ele>
        <time>2011-05-15T08:13:35Z</time>
      </trkpt>
      <trkpt lat="43.61223" lon="1.57516">
        <ele>219.31799316406</ele>
        <time>2011-05-15T08:13:39Z</time>
      </trkpt>
      <trkpt lat="43.61238" lon="1.57535">
        <ele>219.79858398438</ele>
        <time>2011-05-15T08:13:45Z</time>
      </trkpt>
      <trkpt lat="43.61248" lon="1.57551">
        <ele>220.27917480469</ele>
        <time>2011-05-15T08:13:50Z</time>
      </trkpt>
      <trkpt lat="43.6126" lon="1.57567">
        <ele>220.75988769531</ele>
        <time>2011-05-15T08:13:55Z</time>
      </trkpt>
      <trkpt lat="43.61273" lon="1.57584">
        <ele>222.20178222656</ele>
        <time>2011-05-15T08:14:00Z</time>
      </trkpt>
      <trkpt lat="43.61285" lon="1.57598">
        <ele>222.68249511719</ele>
        <time>2011-05-15T08:14:05Z</time>
      </trkpt>
      <trkpt lat="43.61299" lon="1.57611">
        <ele>223.16320800781</ele>
        <time>2011-05-15T08:14:10Z</time>
      </trkpt>
      <trkpt lat="43.61313" lon="1.57622">
        <ele>222.68249511719</ele>
        <time>2011-05-15T08:14:15Z</time>
      </trkpt>
      <trkpt lat="43.6133" lon="1.57637">
        <ele>223.64379882812</ele>
        <time>2011-05-15T08:14:21Z</time>
      </trkpt>
      <trkpt lat="43.61349" lon="1.57656">
        <ele>224.60522460938</ele>
        <time>2011-05-15T08:14:28Z</time>
      </trkpt>
      <trkpt lat="43.6136" lon="1.57673">
        <ele>223.16320800781</ele>
        <time>2011-05-15T08:14:33Z</time>
      </trkpt>
      <trkpt lat="43.61367" lon="1.57693">
        <ele>221.24060058594</ele>
        <time>2011-05-15T08:14:38Z</time>
      </trkpt>
      <trkpt lat="43.61372" lon="1.57714">
        <ele>220.75988769531</ele>
        <time>2011-05-15T08:14:43Z</time>
      </trkpt>
      <trkpt lat="43.61374" lon="1.57742">
        <ele>220.27917480469</ele>
        <time>2011-05-15T08:14:49Z</time>
      </trkpt>
      <trkpt lat="43.61374" lon="1.57765">
        <ele>222.20178222656</ele>
        <time>2011-05-15T08:14:54Z</time>
      </trkpt>
      <trkpt lat="43.61373" lon="1.57792">
        <ele>222.20178222656</ele>
        <time>2011-05-15T08:15:00Z</time>
      </trkpt>
      <trkpt lat="43.61377" lon="1.57818">
        <ele>223.64379882812</ele>
        <time>2011-05-15T08:15:06Z</time>
      </trkpt>
      <trkpt lat="43.61382" lon="1.57841">
        <ele>224.12451171875</ele>
        <time>2011-05-15T08:15:11Z</time>
      </trkpt>
      <trkpt lat="43.61391" lon="1.57861">
        <ele>225.56652832031</ele>
        <time>2011-05-15T08:15:16Z</time>
      </trkpt>
      <trkpt lat="43.61397" lon="1.57878">
        <ele>226.04711914062</ele>
        <time>2011-05-15T08:15:20Z</time>
      </trkpt>
      <trkpt lat="43.61406" lon="1.57894">
        <ele>226.04711914062</ele>
        <time>2011-05-15T08:15:24Z</time>
      </trkpt>
      <trkpt lat="43.61417" lon="1.5792">
        <ele>226.04711914062</ele>
        <time>2011-05-15T08:15:30Z</time>
      </trkpt>
      <trkpt lat="43.61425" lon="1.57941">
        <ele>225.56652832031</ele>
        <time>2011-05-15T08:15:35Z</time>
      </trkpt>
      <trkpt lat="43.61433" lon="1.57958">
        <ele>225.0859375</ele>
        <time>2011-05-15T08:15:39Z</time>
      </trkpt>
      <trkpt lat="43.61441" lon="1.57987">
        <ele>223.16320800781</ele>
        <time>2011-05-15T08:15:45Z</time>
      </trkpt>
      <trkpt lat="43.61448" lon="1.58016">
        <ele>223.16320800781</ele>
        <time>2011-05-15T08:15:51Z</time>
      </trkpt>
      <trkpt lat="43.61451" lon="1.58035">
        <ele>223.16320800781</ele>
        <time>2011-05-15T08:15:55Z</time>
      </trkpt>
      <trkpt lat="43.61454" lon="1.58062">
        <ele>223.16320800781</ele>
        <time>2011-05-15T08:16:00Z</time>
      </trkpt>
      <trkpt lat="43.61448" lon="1.58085">
        <ele>221.72119140625</ele>
        <time>2011-05-15T08:16:05Z</time>
      </trkpt>
      <trkpt lat="43.61434" lon="1.5811">
        <ele>218.35656738281</ele>
        <time>2011-05-15T08:16:11Z</time>
      </trkpt>
      <trkpt lat="43.61419" lon="1.58135">
        <ele>218.35656738281</ele>
        <time>2011-05-15T08:16:17Z</time>
      </trkpt>
      <trkpt lat="43.61405" lon="1.58156">
        <ele>216.91467285156</ele>
        <time>2011-05-15T08:16:23Z</time>
      </trkpt>
      <trkpt lat="43.61389" lon="1.58175">
        <ele>215.47265625</ele>
        <time>2011-05-15T08:16:29Z</time>
      </trkpt>
      <trkpt lat="43.61376" lon="1.5819">
        <ele>213.55004882812</ele>
        <time>2011-05-15T08:16:34Z</time>
      </trkpt>
      <trkpt lat="43.61363" lon="1.58204">
        <ele>211.14672851562</ele>
        <time>2011-05-15T08:16:39Z</time>
      </trkpt>
      <trkpt lat="43.61352" lon="1.58216">
        <ele>210.666015625</ele>
        <time>2011-05-15T08:16:43Z</time>
      </trkpt>
      <trkpt lat="43.61339" lon="1.58233">
        <ele>209.70483398438</ele>
        <time>2011-05-15T08:16:48Z</time>
      </trkpt>
      <trkpt lat="43.6132" lon="1.5826">
        <ele>208.74340820312</ele>
        <time>2011-05-15T08:16:55Z</time>
      </trkpt>
      <trkpt lat="43.61309" lon="1.58282">
        <ele>207.78210449219</ele>
        <time>2011-05-15T08:17:00Z</time>
      </trkpt>
      <trkpt lat="43.61294" lon="1.58313">
        <ele>205.85949707031</ele>
        <time>2011-05-15T08:17:07Z</time>
      </trkpt>
      <trkpt lat="43.61279" lon="1.58339">
        <ele>202.49487304688</ele>
        <time>2011-05-15T08:17:13Z</time>
      </trkpt>
      <trkpt lat="43.61275" lon="1.58344">
        <ele>202.49487304688</ele>
        <time>2011-05-15T08:17:14Z</time>
      </trkpt>
      <trkpt lat="43.61256" lon="1.58376">
        <ele>199.61083984375</ele>
        <time>2011-05-15T08:17:21Z</time>
      </trkpt>
      <trkpt lat="43.61237" lon="1.58406">
        <ele>197.68823242188</ele>
        <time>2011-05-15T08:17:28Z</time>
      </trkpt>
      <trkpt lat="43.61228" lon="1.58419">
        <ele>197.68823242188</ele>
        <time>2011-05-15T08:17:31Z</time>
      </trkpt>
      <trkpt lat="43.61228" lon="1.58419">
        <ele>197.68823242188</ele>
        <time>2011-05-15T08:17:31Z</time>
      </trkpt>
      <trkpt lat="43.6122" lon="1.58431">
        <ele>196.72692871094</ele>
        <time>2011-05-15T08:17:34Z</time>
      </trkpt>
      <trkpt lat="43.61201" lon="1.58458">
        <ele>193.84301757812</ele>
        <time>2011-05-15T08:17:41Z</time>
      </trkpt>
      <trkpt lat="43.61185" lon="1.58481">
        <ele>191.92028808594</ele>
        <time>2011-05-15T08:17:47Z</time>
      </trkpt>
      <trkpt lat="43.61165" lon="1.58508">
        <ele>189.51696777344</ele>
        <time>2011-05-15T08:17:54Z</time>
      </trkpt>
      <trkpt lat="43.61148" lon="1.58534">
        <ele>187.11376953125</ele>
        <time>2011-05-15T08:18:00Z</time>
      </trkpt>
      <trkpt lat="43.61131" lon="1.58554">
        <ele>182.30712890625</ele>
        <time>2011-05-15T08:18:06Z</time>
      </trkpt>
      <trkpt lat="43.61113" lon="1.58562">
        <ele>182.30712890625</ele>
        <time>2011-05-15T08:18:11Z</time>
      </trkpt>
      <trkpt lat="43.61094" lon="1.58565">
        <ele>182.30712890625</ele>
        <time>2011-05-15T08:18:16Z</time>
      </trkpt>
      <trkpt lat="43.61079" lon="1.58565">
        <ele>183.7490234375</ele>
        <time>2011-05-15T08:18:20Z</time>
      </trkpt>
      <trkpt lat="43.61058" lon="1.58561">
        <ele>187.59436035156</ele>
        <time>2011-05-15T08:18:26Z</time>
      </trkpt>
      <trkpt lat="43.61044" lon="1.58563">
        <ele>191.92028808594</ele>
        <time>2011-05-15T08:18:30Z</time>
      </trkpt>
      <trkpt lat="43.6103" lon="1.58564">
        <ele>195.765625</ele>
        <time>2011-05-15T08:18:34Z</time>
      </trkpt>
      <trkpt lat="43.61014" lon="1.58564">
        <ele>201.05285644531</ele>
        <time>2011-05-15T08:18:39Z</time>
      </trkpt>
      <trkpt lat="43.61002" lon="1.58564">
        <ele>204.89807128906</ele>
        <time>2011-05-15T08:18:43Z</time>
      </trkpt>
      <trkpt lat="43.60987" lon="1.58567">
        <ele>208.26281738281</ele>
        <time>2011-05-15T08:18:48Z</time>
      </trkpt>
      <trkpt lat="43.60969" lon="1.58571">
        <ele>212.58862304688</ele>
        <time>2011-05-15T08:18:54Z</time>
      </trkpt>
      <trkpt lat="43.60949" lon="1.58577">
        <ele>219.31799316406</ele>
        <time>2011-05-15T08:19:00Z</time>
      </trkpt>
      <trkpt lat="43.60933" lon="1.58582">
        <ele>223.64379882812</ele>
        <time>2011-05-15T08:19:05Z</time>
      </trkpt>
      <trkpt lat="43.60915" lon="1.58589">
        <ele>227.00854492188</ele>
        <time>2011-05-15T08:19:11Z</time>
      </trkpt>
      <trkpt lat="43.60898" lon="1.58595">
        <ele>228.93115234375</ele>
        <time>2011-05-15T08:19:17Z</time>
      </trkpt>
      <trkpt lat="43.60881" lon="1.58602">
        <ele>227.9697265625</ele>
        <time>2011-05-15T08:19:23Z</time>
      </trkpt>
      <trkpt lat="43.60862" lon="1.58611">
        <ele>230.85375976562</ele>
        <time>2011-05-15T08:19:29Z</time>
      </trkpt>
      <trkpt lat="43.60848" lon="1.58619">
        <ele>232.77648925781</ele>
        <time>2011-05-15T08:19:34Z</time>
      </trkpt>
      <trkpt lat="43.6083" lon="1.58627">
        <ele>234.21838378906</ele>
        <time>2011-05-15T08:19:40Z</time>
      </trkpt>
      <trkpt lat="43.60812" lon="1.58636">
        <ele>237.10229492188</ele>
        <time>2011-05-15T08:19:46Z</time>
      </trkpt>
      <trkpt lat="43.60797" lon="1.58643">
        <ele>238.54431152344</ele>
        <time>2011-05-15T08:19:51Z</time>
      </trkpt>
      <trkpt lat="43.6078" lon="1.58649">
        <ele>235.1796875</ele>
        <time>2011-05-15T08:19:57Z</time>
      </trkpt>
      <trkpt lat="43.60763" lon="1.58658">
        <ele>235.1796875</ele>
        <time>2011-05-15T08:20:03Z</time>
      </trkpt>
      <trkpt lat="43.60751" lon="1.5866">
        <ele>226.52783203125</ele>
        <time>2011-05-15T08:20:08Z</time>
      </trkpt>
      <trkpt lat="43.60725" lon="1.58669">
        <ele>219.79858398438</ele>
        <time>2011-05-15T08:20:17Z</time>
      </trkpt>
      <trkpt lat="43.60707" lon="1.58676">
        <ele>216.91467285156</ele>
        <time>2011-05-15T08:20:23Z</time>
      </trkpt>
      <trkpt lat="43.60692" lon="1.58682">
        <ele>215.47265625</ele>
        <time>2011-05-15T08:20:28Z</time>
      </trkpt>
      <trkpt lat="43.60674" lon="1.58688">
        <ele>212.58862304688</ele>
        <time>2011-05-15T08:20:34Z</time>
      </trkpt>
      <trkpt lat="43.60671" lon="1.58688">
        <ele>212.10803222656</ele>
        <time>2011-05-15T08:20:35Z</time>
      </trkpt>
      <trkpt lat="43.60666" lon="1.58671">
        <ele>205.37878417969</ele>
        <time>2011-05-15T08:20:39Z</time>
      </trkpt>
      <trkpt lat="43.60673" lon="1.58651">
        <ele>201.53356933594</ele>
        <time>2011-05-15T08:20:43Z</time>
      </trkpt>
      <trkpt lat="43.60677" lon="1.58642">
        <ele>200.09167480469</ele>
        <time>2011-05-15T08:20:45Z</time>
      </trkpt>
      <trkpt lat="43.60688" lon="1.58616">
        <ele>197.20751953125</ele>
        <time>2011-05-15T08:20:51Z</time>
      </trkpt>
      <trkpt lat="43.60699" lon="1.58592">
        <ele>193.84301757812</ele>
        <time>2011-05-15T08:20:57Z</time>
      </trkpt>
      <trkpt lat="43.60711" lon="1.58568">
        <ele>191.92028808594</ele>
        <time>2011-05-15T08:21:03Z</time>
      </trkpt>
      <trkpt lat="43.60722" lon="1.58543">
        <ele>190.47839355469</ele>
        <time>2011-05-15T08:21:09Z</time>
      </trkpt>
      <trkpt lat="43.60734" lon="1.58513">
        <ele>190.47839355469</ele>
        <time>2011-05-15T08:21:16Z</time>
      </trkpt>
      <trkpt lat="43.60746" lon="1.58482">
        <ele>191.43957519531</ele>
        <time>2011-05-15T08:21:23Z</time>
      </trkpt>
      <trkpt lat="43.60756" lon="1.58456">
        <ele>191.43957519531</ele>
        <time>2011-05-15T08:21:29Z</time>
      </trkpt>
      <trkpt lat="43.60764" lon="1.58434">
        <ele>191.43957519531</ele>
        <time>2011-05-15T08:21:34Z</time>
      </trkpt>
      <trkpt lat="43.60775" lon="1.58408">
        <ele>189.99768066406</ele>
        <time>2011-05-15T08:21:40Z</time>
      </trkpt>
      <trkpt lat="43.60783" lon="1.58386">
        <ele>189.99768066406</ele>
        <time>2011-05-15T08:21:45Z</time>
      </trkpt>
      <trkpt lat="43.60792" lon="1.58364">
        <ele>189.03637695312</ele>
        <time>2011-05-15T08:21:50Z</time>
      </trkpt>
      <trkpt lat="43.60801" lon="1.58342">
        <ele>188.07507324219</ele>
        <time>2011-05-15T08:21:55Z</time>
      </trkpt>
      <trkpt lat="43.60811" lon="1.58314">
        <ele>188.07507324219</ele>
        <time>2011-05-15T08:22:01Z</time>
      </trkpt>
      <trkpt lat="43.60819" lon="1.58291">
        <ele>188.07507324219</ele>
        <time>2011-05-15T08:22:06Z</time>
      </trkpt>
      <trkpt lat="43.6083" lon="1.58262">
        <ele>187.11376953125</ele>
        <time>2011-05-15T08:22:12Z</time>
      </trkpt>
      <trkpt lat="43.60842" lon="1.58233">
        <ele>186.15246582031</ele>
        <time>2011-05-15T08:22:18Z</time>
      </trkpt>
      <trkpt lat="43.60852" lon="1.5821">
        <ele>184.22985839844</ele>
        <time>2011-05-15T08:22:23Z</time>
      </trkpt>
      <trkpt lat="43.60863" lon="1.58181">
        <ele>183.7490234375</ele>
        <time>2011-05-15T08:22:29Z</time>
      </trkpt>
      <trkpt lat="43.60872" lon="1.58158">
        <ele>183.7490234375</ele>
        <time>2011-05-15T08:22:34Z</time>
      </trkpt>
      <trkpt lat="43.6088" lon="1.58141">
        <ele>182.78784179688</ele>
        <time>2011-05-15T08:22:38Z</time>
      </trkpt>
      <trkpt lat="43.60887" lon="1.58122">
        <ele>182.78784179688</ele>
        <time>2011-05-15T08:22:42Z</time>
      </trkpt>
      <trkpt lat="43.60896" lon="1.58095">
        <ele>184.22985839844</ele>
        <time>2011-05-15T08:22:48Z</time>
      </trkpt>
      <trkpt lat="43.60902" lon="1.58076">
        <ele>184.71057128906</ele>
        <time>2011-05-15T08:22:52Z</time>
      </trkpt>
      <trkpt lat="43.60899" lon="1.58053">
        <ele>186.15246582031</ele>
        <time>2011-05-15T08:22:56Z</time>
      </trkpt>
      <trkpt lat="43.60897" lon="1.58042">
        <ele>187.11376953125</ele>
        <time>2011-05-15T08:22:58Z</time>
      </trkpt>
      <trkpt lat="43.60892" lon="1.58014">
        <ele>188.07507324219</ele>
        <time>2011-05-15T08:23:03Z</time>
      </trkpt>
      <trkpt lat="43.60886" lon="1.57981">
        <ele>189.03637695312</ele>
        <time>2011-05-15T08:23:09Z</time>
      </trkpt>
      <trkpt lat="43.60885" lon="1.57975">
        <ele>188.55578613281</ele>
        <time>2011-05-15T08:23:10Z</time>
      </trkpt>
      <trkpt lat="43.6088" lon="1.57941">
        <ele>186.63317871094</ele>
        <time>2011-05-15T08:23:17Z</time>
      </trkpt>
      <trkpt lat="43.60874" lon="1.57912">
        <ele>185.19116210938</ele>
        <time>2011-05-15T08:23:23Z</time>
      </trkpt>
      <trkpt lat="43.60867" lon="1.57891">
        <ele>183.26843261719</ele>
        <time>2011-05-15T08:23:28Z</time>
      </trkpt>
      <trkpt lat="43.60855" lon="1.57873">
        <ele>182.30712890625</ele>
        <time>2011-05-15T08:23:33Z</time>
      </trkpt>
      <trkpt lat="43.60833" lon="1.57852">
        <ele>179.90380859375</ele>
        <time>2011-05-15T08:23:41Z</time>
      </trkpt>
      <trkpt lat="43.6082" lon="1.57836">
        <ele>179.42321777344</ele>
        <time>2011-05-15T08:23:46Z</time>
      </trkpt>
      <trkpt lat="43.60811" lon="1.57813">
        <ele>180.38452148438</ele>
        <time>2011-05-15T08:23:52Z</time>
      </trkpt>
      <trkpt lat="43.60805" lon="1.57794">
        <ele>179.90380859375</ele>
        <time>2011-05-15T08:23:57Z</time>
      </trkpt>
      <trkpt lat="43.60796" lon="1.57769">
        <ele>178.94262695312</ele>
        <time>2011-05-15T08:24:03Z</time>
      </trkpt>
      <trkpt lat="43.60787" lon="1.57747">
        <ele>178.94262695312</ele>
        <time>2011-05-15T08:24:08Z</time>
      </trkpt>
      <trkpt lat="43.60776" lon="1.5773">
        <ele>179.42321777344</ele>
        <time>2011-05-15T08:24:13Z</time>
      </trkpt>
      <trkpt lat="43.60764" lon="1.57726">
        <ele>179.90380859375</ele>
        <time>2011-05-15T08:24:17Z</time>
      </trkpt>
      <trkpt lat="43.60748" lon="1.57729">
        <ele>181.34582519531</ele>
        <time>2011-05-15T08:24:22Z</time>
      </trkpt>
      <trkpt lat="43.60725" lon="1.57735">
        <ele>182.30712890625</ele>
        <time>2011-05-15T08:24:29Z</time>
      </trkpt>
      <trkpt lat="43.60709" lon="1.57734">
        <ele>182.30712890625</ele>
        <time>2011-05-15T08:24:34Z</time>
      </trkpt>
      <trkpt lat="43.60691" lon="1.57726">
        <ele>182.30712890625</ele>
        <time>2011-05-15T08:24:40Z</time>
      </trkpt>
      <trkpt lat="43.60673" lon="1.57717">
        <ele>183.26843261719</ele>
        <time>2011-05-15T08:24:46Z</time>
      </trkpt>
      <trkpt lat="43.60658" lon="1.5771">
        <ele>183.7490234375</ele>
        <time>2011-05-15T08:24:51Z</time>
      </trkpt>
      <trkpt lat="43.60639" lon="1.57704">
        <ele>182.78784179688</ele>
        <time>2011-05-15T08:24:56Z</time>
      </trkpt>
      <trkpt lat="43.60622" lon="1.57702">
        <ele>183.26843261719</ele>
        <time>2011-05-15T08:25:01Z</time>
      </trkpt>
      <trkpt lat="43.60602" lon="1.577">
        <ele>183.26843261719</ele>
        <time>2011-05-15T08:25:07Z</time>
      </trkpt>
      <trkpt lat="43.60579" lon="1.57702">
        <ele>179.90380859375</ele>
        <time>2011-05-15T08:25:13Z</time>
      </trkpt>
      <trkpt lat="43.6057" lon="1.57707">
        <ele>177.02001953125</ele>
        <time>2011-05-15T08:25:16Z</time>
      </trkpt>
      <trkpt lat="43.6056" lon="1.57729">
        <ele>172.69396972656</ele>
        <time>2011-05-15T08:25:22Z</time>
      </trkpt>
      <trkpt lat="43.60548" lon="1.57743">
        <ele>171.25207519531</ele>
        <time>2011-05-15T08:25:27Z</time>
      </trkpt>
      <trkpt lat="43.60531" lon="1.57764">
        <ele>172.69396972656</ele>
        <time>2011-05-15T08:25:34Z</time>
      </trkpt>
      <trkpt lat="43.60514" lon="1.57785">
        <ele>174.13586425781</ele>
        <time>2011-05-15T08:25:41Z</time>
      </trkpt>
      <trkpt lat="43.60498" lon="1.57803">
        <ele>174.13586425781</ele>
        <time>2011-05-15T08:25:47Z</time>
      </trkpt>
      <trkpt lat="43.60488" lon="1.57815">
        <ele>175.09729003906</ele>
        <time>2011-05-15T08:25:51Z</time>
      </trkpt>
      <trkpt lat="43.60476" lon="1.57826">
        <ele>174.61657714844</ele>
        <time>2011-05-15T08:25:56Z</time>
      </trkpt>
      <trkpt lat="43.60466" lon="1.57836">
        <ele>174.61657714844</ele>
        <time>2011-05-15T08:26:00Z</time>
      </trkpt>
      <trkpt lat="43.60453" lon="1.57845">
        <ele>173.6552734375</ele>
        <time>2011-05-15T08:26:05Z</time>
      </trkpt>
      <trkpt lat="43.60442" lon="1.57854">
        <ele>172.69396972656</ele>
        <time>2011-05-15T08:26:09Z</time>
      </trkpt>
      <trkpt lat="43.60432" lon="1.57862">
        <ele>173.6552734375</ele>
        <time>2011-05-15T08:26:13Z</time>
      </trkpt>
      <trkpt lat="43.60418" lon="1.57872">
        <ele>176.05859375</ele>
        <time>2011-05-15T08:26:18Z</time>
      </trkpt>
      <trkpt lat="43.60406" lon="1.57886">
        <ele>179.42321777344</ele>
        <time>2011-05-15T08:26:23Z</time>
      </trkpt>
      <trkpt lat="43.60395" lon="1.57898">
        <ele>181.34582519531</ele>
        <time>2011-05-15T08:26:28Z</time>
      </trkpt>
      <trkpt lat="43.60389" lon="1.57909">
        <ele>181.82641601562</ele>
        <time>2011-05-15T08:26:32Z</time>
      </trkpt>
      <trkpt lat="43.60388" lon="1.57921">
        <ele>182.30712890625</ele>
        <time>2011-05-15T08:26:35Z</time>
      </trkpt>
      <trkpt lat="43.60392" lon="1.57936">
        <ele>184.22985839844</ele>
        <time>2011-05-15T08:26:40Z</time>
      </trkpt>
      <trkpt lat="43.60401" lon="1.57954">
        <ele>183.7490234375</ele>
        <time>2011-05-15T08:26:46Z</time>
      </trkpt>
      <trkpt lat="43.60408" lon="1.57974">
        <ele>185.19116210938</ele>
        <time>2011-05-15T08:26:52Z</time>
      </trkpt>
      <trkpt lat="43.60415" lon="1.57995">
        <ele>187.59436035156</ele>
        <time>2011-05-15T08:26:58Z</time>
      </trkpt>
      <trkpt lat="43.60418" lon="1.58017">
        <ele>189.99768066406</ele>
        <time>2011-05-15T08:27:04Z</time>
      </trkpt>
      <trkpt lat="43.60415" lon="1.5803">
        <ele>192.40112304688</ele>
        <time>2011-05-15T08:27:08Z</time>
      </trkpt>
      <trkpt lat="43.60407" lon="1.58047">
        <ele>194.80432128906</ele>
        <time>2011-05-15T08:27:14Z</time>
      </trkpt>
      <trkpt lat="43.60401" lon="1.58058">
        <ele>196.72692871094</ele>
        <time>2011-05-15T08:27:18Z</time>
      </trkpt>
      <trkpt lat="43.6039" lon="1.58076">
        <ele>199.61083984375</ele>
        <time>2011-05-15T08:27:25Z</time>
      </trkpt>
      <trkpt lat="43.60381" lon="1.58093">
        <ele>201.05285644531</ele>
        <time>2011-05-15T08:27:31Z</time>
      </trkpt>
      <trkpt lat="43.60372" lon="1.5811">
        <ele>202.97546386719</ele>
        <time>2011-05-15T08:27:37Z</time>
      </trkpt>
      <trkpt lat="43.60362" lon="1.58134">
        <ele>204.41748046875</ele>
        <time>2011-05-15T08:27:45Z</time>
      </trkpt>
      <trkpt lat="43.60354" lon="1.58153">
        <ele>204.89807128906</ele>
        <time>2011-05-15T08:27:51Z</time>
      </trkpt>
      <trkpt lat="43.60344" lon="1.58174">
        <ele>205.37878417969</ele>
        <time>2011-05-15T08:27:58Z</time>
      </trkpt>
      <trkpt lat="43.60337" lon="1.58189">
        <ele>206.34008789062</ele>
        <time>2011-05-15T08:28:03Z</time>
      </trkpt>
      <trkpt lat="43.60328" lon="1.58206">
        <ele>208.26281738281</ele>
        <time>2011-05-15T08:28:08Z</time>
      </trkpt>
      <trkpt lat="43.6032" lon="1.58222">
        <ele>207.78210449219</ele>
        <time>2011-05-15T08:28:13Z</time>
      </trkpt>
      <trkpt lat="43.60312" lon="1.58239">
        <ele>208.74340820312</ele>
        <time>2011-05-15T08:28:18Z</time>
      </trkpt>
      <trkpt lat="43.60303" lon="1.5826">
        <ele>209.70483398438</ele>
        <time>2011-05-15T08:28:24Z</time>
      </trkpt>
      <trkpt lat="43.60294" lon="1.58276">
        <ele>209.22412109375</ele>
        <time>2011-05-15T08:28:29Z</time>
      </trkpt>
      <trkpt lat="43.60289" lon="1.58291">
        <ele>209.22412109375</ele>
        <time>2011-05-15T08:28:33Z</time>
      </trkpt>
      <trkpt lat="43.60282" lon="1.5831">
        <ele>210.18542480469</ele>
        <time>2011-05-15T08:28:38Z</time>
      </trkpt>
      <trkpt lat="43.60275" lon="1.58334">
        <ele>210.666015625</ele>
        <time>2011-05-15T08:28:44Z</time>
      </trkpt>
      <trkpt lat="43.6027" lon="1.58353">
        <ele>211.14672851562</ele>
        <time>2011-05-15T08:28:49Z</time>
      </trkpt>
      <trkpt lat="43.60266" lon="1.58372">
        <ele>212.58862304688</ele>
        <time>2011-05-15T08:28:54Z</time>
      </trkpt>
      <trkpt lat="43.6026" lon="1.58396">
        <ele>212.58862304688</ele>
        <time>2011-05-15T08:29:00Z</time>
      </trkpt>
      <trkpt lat="43.60255" lon="1.58416">
        <ele>214.03063964844</ele>
        <time>2011-05-15T08:29:05Z</time>
      </trkpt>
      <trkpt lat="43.60249" lon="1.5844">
        <ele>215.95324707031</ele>
        <time>2011-05-15T08:29:11Z</time>
      </trkpt>
      <trkpt lat="43.60244" lon="1.58464">
        <ele>215.95324707031</ele>
        <time>2011-05-15T08:29:16Z</time>
      </trkpt>
      <trkpt lat="43.60242" lon="1.58482">
        <ele>214.99194335938</ele>
        <time>2011-05-15T08:29:20Z</time>
      </trkpt>
      <trkpt lat="43.6024" lon="1.58502">
        <ele>214.99194335938</ele>
        <time>2011-05-15T08:29:25Z</time>
      </trkpt>
      <trkpt lat="43.60241" lon="1.58524">
        <ele>215.95324707031</ele>
        <time>2011-05-15T08:29:30Z</time>
      </trkpt>
      <trkpt lat="43.6024" lon="1.58542">
        <ele>216.43395996094</ele>
        <time>2011-05-15T08:29:34Z</time>
      </trkpt>
      <trkpt lat="43.6024" lon="1.58565">
        <ele>215.95324707031</ele>
        <time>2011-05-15T08:29:39Z</time>
      </trkpt>
      <trkpt lat="43.60236" lon="1.58591">
        <ele>216.43395996094</ele>
        <time>2011-05-15T08:29:45Z</time>
      </trkpt>
      <trkpt lat="43.60232" lon="1.58614">
        <ele>216.91467285156</ele>
        <time>2011-05-15T08:29:50Z</time>
      </trkpt>
      <trkpt lat="43.60229" lon="1.58632">
        <ele>216.91467285156</ele>
        <time>2011-05-15T08:29:54Z</time>
      </trkpt>
      <trkpt lat="43.60221" lon="1.58662">
        <ele>214.51123046875</ele>
        <time>2011-05-15T08:30:01Z</time>
      </trkpt>
      <trkpt lat="43.60213" lon="1.58687">
        <ele>213.0693359375</ele>
        <time>2011-05-15T08:30:07Z</time>
      </trkpt>
      <trkpt lat="43.60205" lon="1.58712">
        <ele>214.51123046875</ele>
        <time>2011-05-15T08:30:13Z</time>
      </trkpt>
      <trkpt lat="43.60197" lon="1.58737">
        <ele>215.95324707031</ele>
        <time>2011-05-15T08:30:19Z</time>
      </trkpt>
      <trkpt lat="43.6019" lon="1.58762">
        <ele>215.95324707031</ele>
        <time>2011-05-15T08:30:25Z</time>
      </trkpt>
      <trkpt lat="43.60183" lon="1.58786">
        <ele>216.43395996094</ele>
        <time>2011-05-15T08:30:31Z</time>
      </trkpt>
      <trkpt lat="43.60177" lon="1.58807">
        <ele>218.35656738281</ele>
        <time>2011-05-15T08:30:36Z</time>
      </trkpt>
      <trkpt lat="43.6017" lon="1.58832">
        <ele>219.31799316406</ele>
        <time>2011-05-15T08:30:42Z</time>
      </trkpt>
      <trkpt lat="43.60163" lon="1.58854">
        <ele>220.27917480469</ele>
        <time>2011-05-15T08:30:47Z</time>
      </trkpt>
      <trkpt lat="43.60157" lon="1.58872">
        <ele>220.27917480469</ele>
        <time>2011-05-15T08:30:51Z</time>
      </trkpt>
      <trkpt lat="43.60149" lon="1.589">
        <ele>219.31799316406</ele>
        <time>2011-05-15T08:30:58Z</time>
      </trkpt>
      <trkpt lat="43.60146" lon="1.58926">
        <ele>219.79858398438</ele>
        <time>2011-05-15T08:31:04Z</time>
      </trkpt>
      <trkpt lat="43.60138" lon="1.58957">
        <ele>220.27917480469</ele>
        <time>2011-05-15T08:31:11Z</time>
      </trkpt>
      <trkpt lat="43.60129" lon="1.58987">
        <ele>220.27917480469</ele>
        <time>2011-05-15T08:31:18Z</time>
      </trkpt>
      <trkpt lat="43.60121" lon="1.59013">
        <ele>220.75988769531</ele>
        <time>2011-05-15T08:31:24Z</time>
      </trkpt>
      <trkpt lat="43.60117" lon="1.59028">
        <ele>220.75988769531</ele>
        <time>2011-05-15T08:31:28Z</time>
      </trkpt>
      <trkpt lat="43.60111" lon="1.59048">
        <ele>220.27917480469</ele>
        <time>2011-05-15T08:31:33Z</time>
      </trkpt>
      <trkpt lat="43.60109" lon="1.59065">
        <ele>218.83728027344</ele>
        <time>2011-05-15T08:31:37Z</time>
      </trkpt>
      <trkpt lat="43.60108" lon="1.59089">
        <ele>217.8759765625</ele>
        <time>2011-05-15T08:31:42Z</time>
      </trkpt>
      <trkpt lat="43.60107" lon="1.5912">
        <ele>217.8759765625</ele>
        <time>2011-05-15T08:31:49Z</time>
      </trkpt>
      <trkpt lat="43.60112" lon="1.5914">
        <ele>217.39538574219</ele>
        <time>2011-05-15T08:31:54Z</time>
      </trkpt>
      <trkpt lat="43.60121" lon="1.59159">
        <ele>217.8759765625</ele>
        <time>2011-05-15T08:31:59Z</time>
      </trkpt>
      <trkpt lat="43.60132" lon="1.59178">
        <ele>215.95324707031</ele>
        <time>2011-05-15T08:32:04Z</time>
      </trkpt>
      <trkpt lat="43.60144" lon="1.59195">
        <ele>215.95324707031</ele>
        <time>2011-05-15T08:32:09Z</time>
      </trkpt>
      <trkpt lat="43.60157" lon="1.59215">
        <ele>216.91467285156</ele>
        <time>2011-05-15T08:32:15Z</time>
      </trkpt>
      <trkpt lat="43.60171" lon="1.59235">
        <ele>218.35656738281</ele>
        <time>2011-05-15T08:32:21Z</time>
      </trkpt>
      <trkpt lat="43.60181" lon="1.59251">
        <ele>217.8759765625</ele>
        <time>2011-05-15T08:32:26Z</time>
      </trkpt>
      <trkpt lat="43.60189" lon="1.59264">
        <ele>217.39538574219</ele>
        <time>2011-05-15T08:32:30Z</time>
      </trkpt>
      <trkpt lat="43.602" lon="1.59278">
        <ele>217.8759765625</ele>
        <time>2011-05-15T08:32:35Z</time>
      </trkpt>
      <trkpt lat="43.60212" lon="1.59292">
        <ele>218.83728027344</ele>
        <time>2011-05-15T08:32:40Z</time>
      </trkpt>
      <trkpt lat="43.60221" lon="1.59303">
        <ele>219.79858398438</ele>
        <time>2011-05-15T08:32:44Z</time>
      </trkpt>
      <trkpt lat="43.60233" lon="1.59315">
        <ele>220.75988769531</ele>
        <time>2011-05-15T08:32:49Z</time>
      </trkpt>
      <trkpt lat="43.60246" lon="1.59326">
        <ele>221.24060058594</ele>
        <time>2011-05-15T08:32:54Z</time>
      </trkpt>
      <trkpt lat="43.60256" lon="1.59332">
        <ele>222.20178222656</ele>
        <time>2011-05-15T08:32:58Z</time>
      </trkpt>
      <trkpt lat="43.60272" lon="1.59329">
        <ele>222.20178222656</ele>
        <time>2011-05-15T08:33:03Z</time>
      </trkpt>
      <trkpt lat="43.60286" lon="1.59311">
        <ele>222.20178222656</ele>
        <time>2011-05-15T08:33:09Z</time>
      </trkpt>
      <trkpt lat="43.60296" lon="1.59287">
        <ele>222.20178222656</ele>
        <time>2011-05-15T08:33:15Z</time>
      </trkpt>
      <trkpt lat="43.60303" lon="1.59262">
        <ele>222.68249511719</ele>
        <time>2011-05-15T08:33:21Z</time>
      </trkpt>
      <trkpt lat="43.60311" lon="1.59237">
        <ele>222.68249511719</ele>
        <time>2011-05-15T08:33:27Z</time>
      </trkpt>
      <trkpt lat="43.60319" lon="1.5921">
        <ele>221.72119140625</ele>
        <time>2011-05-15T08:33:33Z</time>
      </trkpt>
      <trkpt lat="43.60328" lon="1.59188">
        <ele>221.72119140625</ele>
        <time>2011-05-15T08:33:38Z</time>
      </trkpt>
      <trkpt lat="43.60339" lon="1.59168">
        <ele>221.72119140625</ele>
        <time>2011-05-15T08:33:43Z</time>
      </trkpt>
      <trkpt lat="43.60352" lon="1.59145">
        <ele>221.72119140625</ele>
        <time>2011-05-15T08:33:49Z</time>
      </trkpt>
      <trkpt lat="43.60366" lon="1.59131">
        <ele>221.72119140625</ele>
        <time>2011-05-15T08:33:54Z</time>
      </trkpt>
      <trkpt lat="43.60382" lon="1.59113">
        <ele>220.75988769531</ele>
        <time>2011-05-15T08:34:00Z</time>
      </trkpt>
      <trkpt lat="43.60396" lon="1.59098">
        <ele>219.31799316406</ele>
        <time>2011-05-15T08:34:05Z</time>
      </trkpt>
      <trkpt lat="43.60408" lon="1.5908">
        <ele>217.8759765625</ele>
        <time>2011-05-15T08:34:10Z</time>
      </trkpt>
      <trkpt lat="43.60426" lon="1.59057">
        <ele>215.47265625</ele>
        <time>2011-05-15T08:34:17Z</time>
      </trkpt>
      <trkpt lat="43.60443" lon="1.59032">
        <ele>212.58862304688</ele>
        <time>2011-05-15T08:34:24Z</time>
      </trkpt>
      <trkpt lat="43.60455" lon="1.59014">
        <ele>212.10803222656</ele>
        <time>2011-05-15T08:34:29Z</time>
      </trkpt>
      <trkpt lat="43.60463" lon="1.58986">
        <ele>214.51123046875</ele>
        <time>2011-05-15T08:34:35Z</time>
      </trkpt>
      <trkpt lat="43.60474" lon="1.58974">
        <ele>214.03063964844</ele>
        <time>2011-05-15T08:34:40Z</time>
      </trkpt>
      <trkpt lat="43.60485" lon="1.58956">
        <ele>213.0693359375</ele>
        <time>2011-05-15T08:34:45Z</time>
      </trkpt>
      <trkpt lat="43.60496" lon="1.58939">
        <ele>211.62744140625</ele>
        <time>2011-05-15T08:34:50Z</time>
      </trkpt>
      <trkpt lat="43.60505" lon="1.5892">
        <ele>210.18542480469</ele>
        <time>2011-05-15T08:34:55Z</time>
      </trkpt>
      <trkpt lat="43.60513" lon="1.58897">
        <ele>208.26281738281</ele>
        <time>2011-05-15T08:35:00Z</time>
      </trkpt>
      <trkpt lat="43.60522" lon="1.58869">
        <ele>207.30139160156</ele>
        <time>2011-05-15T08:35:06Z</time>
      </trkpt>
      <trkpt lat="43.60529" lon="1.58851">
        <ele>206.34008789062</ele>
        <time>2011-05-15T08:35:10Z</time>
      </trkpt>
      <trkpt lat="43.60536" lon="1.58836">
        <ele>204.89807128906</ele>
        <time>2011-05-15T08:35:14Z</time>
      </trkpt>
      <trkpt lat="43.60546" lon="1.58817">
        <ele>204.89807128906</ele>
        <time>2011-05-15T08:35:19Z</time>
      </trkpt>
      <trkpt lat="43.60554" lon="1.58796">
        <ele>204.89807128906</ele>
        <time>2011-05-15T08:35:24Z</time>
      </trkpt>
      <trkpt lat="43.60563" lon="1.58777">
        <ele>204.41748046875</ele>
        <time>2011-05-15T08:35:29Z</time>
      </trkpt>
      <trkpt lat="43.60577" lon="1.58752">
        <ele>203.93688964844</ele>
        <time>2011-05-15T08:35:35Z</time>
      </trkpt>
      <trkpt lat="43.60591" lon="1.58736">
        <ele>202.97546386719</ele>
        <time>2011-05-15T08:35:40Z</time>
      </trkpt>
      <trkpt lat="43.60607" lon="1.58722">
        <ele>202.49487304688</ele>
        <time>2011-05-15T08:35:45Z</time>
      </trkpt>
      <trkpt lat="43.60623" lon="1.58713">
        <ele>201.05285644531</ele>
        <time>2011-05-15T08:35:50Z</time>
      </trkpt>
      <trkpt lat="43.6064" lon="1.58704">
        <ele>201.05285644531</ele>
        <time>2011-05-15T08:35:55Z</time>
      </trkpt>
      <trkpt lat="43.60661" lon="1.58693">
        <ele>200.09167480469</ele>
        <time>2011-05-15T08:36:01Z</time>
      </trkpt>
      <trkpt lat="43.60683" lon="1.58681">
        <ele>198.64953613281</ele>
        <time>2011-05-15T08:36:07Z</time>
      </trkpt>
      <trkpt lat="43.60704" lon="1.58673">
        <ele>196.72692871094</ele>
        <time>2011-05-15T08:36:13Z</time>
      </trkpt>
      <trkpt lat="43.60724" lon="1.58663">
        <ele>195.765625</ele>
        <time>2011-05-15T08:36:19Z</time>
      </trkpt>
      <trkpt lat="43.60743" lon="1.58655">
        <ele>194.80432128906</ele>
        <time>2011-05-15T08:36:24Z</time>
      </trkpt>
      <trkpt lat="43.60756" lon="1.58648">
        <ele>192.88171386719</ele>
        <time>2011-05-15T08:36:28Z</time>
      </trkpt>
      <trkpt lat="43.60775" lon="1.58638">
        <ele>190.958984375</ele>
        <time>2011-05-15T08:36:34Z</time>
      </trkpt>
      <trkpt lat="43.60795" lon="1.58629">
        <ele>190.47839355469</ele>
        <time>2011-05-15T08:36:40Z</time>
      </trkpt>
      <trkpt lat="43.60816" lon="1.58621">
        <ele>189.99768066406</ele>
        <time>2011-05-15T08:36:46Z</time>
      </trkpt>
      <trkpt lat="43.60833" lon="1.58613">
        <ele>189.03637695312</ele>
        <time>2011-05-15T08:36:51Z</time>
      </trkpt>
      <trkpt lat="43.6085" lon="1.58602">
        <ele>188.07507324219</ele>
        <time>2011-05-15T08:36:57Z</time>
      </trkpt>
      <trkpt lat="43.60869" lon="1.58592">
        <ele>187.59436035156</ele>
        <time>2011-05-15T08:37:03Z</time>
      </trkpt>
      <trkpt lat="43.60886" lon="1.58586">
        <ele>187.11376953125</ele>
        <time>2011-05-15T08:37:08Z</time>
      </trkpt>
      <trkpt lat="43.60903" lon="1.58579">
        <ele>186.63317871094</ele>
        <time>2011-05-15T08:37:13Z</time>
      </trkpt>
      <trkpt lat="43.60928" lon="1.58571">
        <ele>185.67175292969</ele>
        <time>2011-05-15T08:37:20Z</time>
      </trkpt>
      <trkpt lat="43.60946" lon="1.58567">
        <ele>184.22985839844</ele>
        <time>2011-05-15T08:37:25Z</time>
      </trkpt>
      <trkpt lat="43.60963" lon="1.58562">
        <ele>182.78784179688</ele>
        <time>2011-05-15T08:37:30Z</time>
      </trkpt>
      <trkpt lat="43.60981" lon="1.58558">
        <ele>181.82641601562</ele>
        <time>2011-05-15T08:37:35Z</time>
      </trkpt>
      <trkpt lat="43.60998" lon="1.58555">
        <ele>180.38452148438</ele>
        <time>2011-05-15T08:37:40Z</time>
      </trkpt>
      <trkpt lat="43.61012" lon="1.58554">
        <ele>178.94262695312</ele>
        <time>2011-05-15T08:37:44Z</time>
      </trkpt>
      <trkpt lat="43.61036" lon="1.58558">
        <ele>177.98120117188</ele>
        <time>2011-05-15T08:37:50Z</time>
      </trkpt>
      <trkpt lat="43.61059" lon="1.58561">
        <ele>177.02001953125</ele>
        <time>2011-05-15T08:37:56Z</time>
      </trkpt>
      <trkpt lat="43.61077" lon="1.58562">
        <ele>177.50061035156</ele>
        <time>2011-05-15T08:38:02Z</time>
      </trkpt>
      <trkpt lat="43.61094" lon="1.58563">
        <ele>178.4619140625</ele>
        <time>2011-05-15T08:38:07Z</time>
      </trkpt>
      <trkpt lat="43.61111" lon="1.58563">
        <ele>177.98120117188</ele>
        <time>2011-05-15T08:38:12Z</time>
      </trkpt>
      <trkpt lat="43.61126" lon="1.58555">
        <ele>179.42321777344</ele>
        <time>2011-05-15T08:38:17Z</time>
      </trkpt>
      <trkpt lat="43.6114" lon="1.5854">
        <ele>180.38452148438</ele>
        <time>2011-05-15T08:38:23Z</time>
      </trkpt>
      <trkpt lat="43.6115" lon="1.58524">
        <ele>180.865234375</ele>
        <time>2011-05-15T08:38:28Z</time>
      </trkpt>
      <trkpt lat="43.6116" lon="1.58506">
        <ele>182.78784179688</ele>
        <time>2011-05-15T08:38:34Z</time>
      </trkpt>
      <trkpt lat="43.61169" lon="1.58492">
        <ele>185.19116210938</ele>
        <time>2011-05-15T08:38:39Z</time>
      </trkpt>
      <trkpt lat="43.61179" lon="1.58476">
        <ele>187.59436035156</ele>
        <time>2011-05-15T08:38:44Z</time>
      </trkpt>
      <trkpt lat="43.61187" lon="1.58462">
        <ele>190.958984375</ele>
        <time>2011-05-15T08:38:49Z</time>
      </trkpt>
      <trkpt lat="43.612" lon="1.58447">
        <ele>192.40112304688</ele>
        <time>2011-05-15T08:38:55Z</time>
      </trkpt>
      <trkpt lat="43.61211" lon="1.58431">
        <ele>193.84301757812</ele>
        <time>2011-05-15T08:39:01Z</time>
      </trkpt>
      <trkpt lat="43.6122" lon="1.58418">
        <ele>194.80432128906</ele>
        <time>2011-05-15T08:39:06Z</time>
      </trkpt>
      <trkpt lat="43.61229" lon="1.58406">
        <ele>194.80432128906</ele>
        <time>2011-05-15T08:39:11Z</time>
      </trkpt>
      <trkpt lat="43.61239" lon="1.5839">
        <ele>196.24633789062</ele>
        <time>2011-05-15T08:39:17Z</time>
      </trkpt>
      <trkpt lat="43.61248" lon="1.58376">
        <ele>197.68823242188</ele>
        <time>2011-05-15T08:39:22Z</time>
      </trkpt>
      <trkpt lat="43.61254" lon="1.58365">
        <ele>199.13012695312</ele>
        <time>2011-05-15T08:39:26Z</time>
      </trkpt>
      <trkpt lat="43.61264" lon="1.58348">
        <ele>200.572265625</ele>
        <time>2011-05-15T08:39:32Z</time>
      </trkpt>
      <trkpt lat="43.61275" lon="1.58333">
        <ele>201.05285644531</ele>
        <time>2011-05-15T08:39:38Z</time>
      </trkpt>
      <trkpt lat="43.61285" lon="1.58317">
        <ele>202.97546386719</ele>
        <time>2011-05-15T08:39:44Z</time>
      </trkpt>
      <trkpt lat="43.61292" lon="1.58306">
        <ele>204.41748046875</ele>
        <time>2011-05-15T08:39:48Z</time>
      </trkpt>
      <trkpt lat="43.613" lon="1.58293">
        <ele>204.89807128906</ele>
        <time>2011-05-15T08:39:53Z</time>
      </trkpt>
      <trkpt lat="43.61305" lon="1.5828">
        <ele>204.89807128906</ele>
        <time>2011-05-15T08:39:57Z</time>
      </trkpt>
      <trkpt lat="43.61312" lon="1.58269">
        <ele>205.85949707031</ele>
        <time>2011-05-15T08:40:01Z</time>
      </trkpt>
      <trkpt lat="43.61322" lon="1.58254">
        <ele>205.85949707031</ele>
        <time>2011-05-15T08:40:07Z</time>
      </trkpt>
      <trkpt lat="43.61329" lon="1.58241">
        <ele>205.85949707031</ele>
        <time>2011-05-15T08:40:12Z</time>
      </trkpt>
      <trkpt lat="43.61337" lon="1.58231">
        <ele>205.85949707031</ele>
        <time>2011-05-15T08:40:16Z</time>
      </trkpt>
      <trkpt lat="43.61345" lon="1.58216">
        <ele>207.78210449219</ele>
        <time>2011-05-15T08:40:21Z</time>
      </trkpt>
      <trkpt lat="43.61356" lon="1.58204">
        <ele>208.26281738281</ele>
        <time>2011-05-15T08:40:26Z</time>
      </trkpt>
      <trkpt lat="43.61371" lon="1.5819">
        <ele>208.26281738281</ele>
        <time>2011-05-15T08:40:32Z</time>
      </trkpt>
      <trkpt lat="43.61382" lon="1.58177">
        <ele>206.82067871094</ele>
        <time>2011-05-15T08:40:37Z</time>
      </trkpt>
      <trkpt lat="43.61392" lon="1.58168">
        <ele>208.26281738281</ele>
        <time>2011-05-15T08:40:41Z</time>
      </trkpt>
      <trkpt lat="43.61402" lon="1.58157">
        <ele>208.74340820312</ele>
        <time>2011-05-15T08:40:45Z</time>
      </trkpt>
      <trkpt lat="43.61411" lon="1.58146">
        <ele>209.22412109375</ele>
        <time>2011-05-15T08:40:49Z</time>
      </trkpt>
      <trkpt lat="43.61422" lon="1.58129">
        <ele>209.22412109375</ele>
        <time>2011-05-15T08:40:54Z</time>
      </trkpt>
      <trkpt lat="43.6143" lon="1.58112">
        <ele>209.22412109375</ele>
        <time>2011-05-15T08:40:59Z</time>
      </trkpt>
      <trkpt lat="43.61441" lon="1.58088">
        <ele>210.666015625</ele>
        <time>2011-05-15T08:41:05Z</time>
      </trkpt>
      <trkpt lat="43.61448" lon="1.58068">
        <ele>211.62744140625</ele>
        <time>2011-05-15T08:41:10Z</time>
      </trkpt>
      <trkpt lat="43.61447" lon="1.58051">
        <ele>214.03063964844</ele>
        <time>2011-05-15T08:41:14Z</time>
      </trkpt>
      <trkpt lat="43.61444" lon="1.58034">
        <ele>215.95324707031</ele>
        <time>2011-05-15T08:41:18Z</time>
      </trkpt>
      <trkpt lat="43.61442" lon="1.58021">
        <ele>217.8759765625</ele>
        <time>2011-05-15T08:41:22Z</time>
      </trkpt>
      <trkpt lat="43.61438" lon="1.58008">
        <ele>219.79858398438</ele>
        <time>2011-05-15T08:41:29Z</time>
      </trkpt>
      <trkpt lat="43.61436" lon="1.57995">
        <ele>219.79858398438</ele>
        <time>2011-05-15T08:41:33Z</time>
      </trkpt>
      <trkpt lat="43.61434" lon="1.57983">
        <ele>220.27917480469</ele>
        <time>2011-05-15T08:41:37Z</time>
      </trkpt>
      <trkpt lat="43.6143" lon="1.5797">
        <ele>218.35656738281</ele>
        <time>2011-05-15T08:41:43Z</time>
      </trkpt>
      <trkpt lat="43.61428" lon="1.57961">
        <ele>217.8759765625</ele>
        <time>2011-05-15T08:41:45Z</time>
      </trkpt>
      <trkpt lat="43.61421" lon="1.5794">
        <ele>216.43395996094</ele>
        <time>2011-05-15T08:41:50Z</time>
      </trkpt>
      <trkpt lat="43.61412" lon="1.57917">
        <ele>217.8759765625</ele>
        <time>2011-05-15T08:41:56Z</time>
      </trkpt>
      <trkpt lat="43.61406" lon="1.57897">
        <ele>218.83728027344</ele>
        <time>2011-05-15T08:42:01Z</time>
      </trkpt>
      <trkpt lat="43.61397" lon="1.57879">
        <ele>219.79858398438</ele>
        <time>2011-05-15T08:42:06Z</time>
      </trkpt>
      <trkpt lat="43.61383" lon="1.5785">
        <ele>222.20178222656</ele>
        <time>2011-05-15T08:42:14Z</time>
      </trkpt>
      <trkpt lat="43.61377" lon="1.57829">
        <ele>223.16320800781</ele>
        <time>2011-05-15T08:42:19Z</time>
      </trkpt>
      <trkpt lat="43.61372" lon="1.57807">
        <ele>223.16320800781</ele>
        <time>2011-05-15T08:42:24Z</time>
      </trkpt>
      <trkpt lat="43.61372" lon="1.57786">
        <ele>221.72119140625</ele>
        <time>2011-05-15T08:42:28Z</time>
      </trkpt>
      <trkpt lat="43.61372" lon="1.57767">
        <ele>221.24060058594</ele>
        <time>2011-05-15T08:42:32Z</time>
      </trkpt>
      <trkpt lat="43.61372" lon="1.57742">
        <ele>220.75988769531</ele>
        <time>2011-05-15T08:42:37Z</time>
      </trkpt>
      <trkpt lat="43.61368" lon="1.57713">
        <ele>220.27917480469</ele>
        <time>2011-05-15T08:42:43Z</time>
      </trkpt>
      <trkpt lat="43.61363" lon="1.57694">
        <ele>220.75988769531</ele>
        <time>2011-05-15T08:42:47Z</time>
      </trkpt>
      <trkpt lat="43.61353" lon="1.57674">
        <ele>222.20178222656</ele>
        <time>2011-05-15T08:42:52Z</time>
      </trkpt>
      <trkpt lat="43.61343" lon="1.57661">
        <ele>222.68249511719</ele>
        <time>2011-05-15T08:42:56Z</time>
      </trkpt>
      <trkpt lat="43.61329" lon="1.57646">
        <ele>223.16320800781</ele>
        <time>2011-05-15T08:43:01Z</time>
      </trkpt>
      <trkpt lat="43.61313" lon="1.5763">
        <ele>223.64379882812</ele>
        <time>2011-05-15T08:43:07Z</time>
      </trkpt>
      <trkpt lat="43.61301" lon="1.57619">
        <ele>223.64379882812</ele>
        <time>2011-05-15T08:43:11Z</time>
      </trkpt>
      <trkpt lat="43.61288" lon="1.57604">
        <ele>223.64379882812</ele>
        <time>2011-05-15T08:43:16Z</time>
      </trkpt>
      <trkpt lat="43.61268" lon="1.57582">
        <ele>224.12451171875</ele>
        <time>2011-05-15T08:43:23Z</time>
      </trkpt>
      <trkpt lat="43.61253" lon="1.57561">
        <ele>224.12451171875</ele>
        <time>2011-05-15T08:43:29Z</time>
      </trkpt>
      <trkpt lat="43.6124" lon="1.57543">
        <ele>224.12451171875</ele>
        <time>2011-05-15T08:43:34Z</time>
      </trkpt>
      <trkpt lat="43.61225" lon="1.57521">
        <ele>224.12451171875</ele>
        <time>2011-05-15T08:43:40Z</time>
      </trkpt>
      <trkpt lat="43.61208" lon="1.57502">
        <ele>222.68249511719</ele>
        <time>2011-05-15T08:43:46Z</time>
      </trkpt>
      <trkpt lat="43.61188" lon="1.57487">
        <ele>221.24060058594</ele>
        <time>2011-05-15T08:43:53Z</time>
      </trkpt>
      <trkpt lat="43.61174" lon="1.57477">
        <ele>221.72119140625</ele>
        <time>2011-05-15T08:43:58Z</time>
      </trkpt>
      <trkpt lat="43.61158" lon="1.57471">
        <ele>223.64379882812</ele>
        <time>2011-05-15T08:44:03Z</time>
      </trkpt>
      <trkpt lat="43.61145" lon="1.57461">
        <ele>220.75988769531</ele>
        <time>2011-05-15T08:44:08Z</time>
      </trkpt>
      <trkpt lat="43.61131" lon="1.5745">
        <ele>221.24060058594</ele>
        <time>2011-05-15T08:44:13Z</time>
      </trkpt>
      <trkpt lat="43.61114" lon="1.57432">
        <ele>222.68249511719</ele>
        <time>2011-05-15T08:44:19Z</time>
      </trkpt>
      <trkpt lat="43.61111" lon="1.57411">
        <ele>222.20178222656</ele>
        <time>2011-05-15T08:44:23Z</time>
      </trkpt>
      <trkpt lat="43.61118" lon="1.5739">
        <ele>221.24060058594</ele>
        <time>2011-05-15T08:44:27Z</time>
      </trkpt>
      <trkpt lat="43.6113" lon="1.57365">
        <ele>220.27917480469</ele>
        <time>2011-05-15T08:44:33Z</time>
      </trkpt>
      <trkpt lat="43.61142" lon="1.57341">
        <ele>221.24060058594</ele>
        <time>2011-05-15T08:44:39Z</time>
      </trkpt>
      <trkpt lat="43.61153" lon="1.57322">
        <ele>221.24060058594</ele>
        <time>2011-05-15T08:44:44Z</time>
      </trkpt>
      <trkpt lat="43.61164" lon="1.57297">
        <ele>221.24060058594</ele>
        <time>2011-05-15T08:44:50Z</time>
      </trkpt>
      <trkpt lat="43.61179" lon="1.5727">
        <ele>221.72119140625</ele>
        <time>2011-05-15T08:44:57Z</time>
      </trkpt>
      <trkpt lat="43.61187" lon="1.57253">
        <ele>222.20178222656</ele>
        <time>2011-05-15T08:45:01Z</time>
      </trkpt>
      <trkpt lat="43.61192" lon="1.57241">
        <ele>222.20178222656</ele>
        <time>2011-05-15T08:45:04Z</time>
      </trkpt>
      <trkpt lat="43.612" lon="1.57221">
        <ele>221.72119140625</ele>
        <time>2011-05-15T08:45:09Z</time>
      </trkpt>
      <trkpt lat="43.61209" lon="1.57194">
        <ele>222.68249511719</ele>
        <time>2011-05-15T08:45:15Z</time>
      </trkpt>
      <trkpt lat="43.6122" lon="1.57169">
        <ele>222.20178222656</ele>
        <time>2011-05-15T08:45:21Z</time>
      </trkpt>
      <trkpt lat="43.61229" lon="1.57143">
        <ele>221.24060058594</ele>
        <time>2011-05-15T08:45:27Z</time>
      </trkpt>
      <trkpt lat="43.61238" lon="1.5712">
        <ele>221.24060058594</ele>
        <time>2011-05-15T08:45:32Z</time>
      </trkpt>
      <trkpt lat="43.61247" lon="1.57094">
        <ele>221.24060058594</ele>
        <time>2011-05-15T08:45:38Z</time>
      </trkpt>
      <trkpt lat="43.61256" lon="1.57074">
        <ele>221.24060058594</ele>
        <time>2011-05-15T08:45:43Z</time>
      </trkpt>
      <trkpt lat="43.61264" lon="1.57053">
        <ele>220.27917480469</ele>
        <time>2011-05-15T08:45:48Z</time>
      </trkpt>
      <trkpt lat="43.61273" lon="1.57032">
        <ele>219.79858398438</ele>
        <time>2011-05-15T08:45:53Z</time>
      </trkpt>
      <trkpt lat="43.61284" lon="1.57008">
        <ele>219.31799316406</ele>
        <time>2011-05-15T08:45:59Z</time>
      </trkpt>
      <trkpt lat="43.61296" lon="1.56981">
        <ele>218.35656738281</ele>
        <time>2011-05-15T08:46:06Z</time>
      </trkpt>
      <trkpt lat="43.61305" lon="1.5696">
        <ele>217.8759765625</ele>
        <time>2011-05-15T08:46:11Z</time>
      </trkpt>
      <trkpt lat="43.61315" lon="1.56936">
        <ele>217.8759765625</ele>
        <time>2011-05-15T08:46:17Z</time>
      </trkpt>
      <trkpt lat="43.61327" lon="1.56907">
        <ele>218.35656738281</ele>
        <time>2011-05-15T08:46:24Z</time>
      </trkpt>
      <trkpt lat="43.61334" lon="1.56886">
        <ele>217.8759765625</ele>
        <time>2011-05-15T08:46:29Z</time>
      </trkpt>
      <trkpt lat="43.61346" lon="1.56858">
        <ele>217.39538574219</ele>
        <time>2011-05-15T08:46:36Z</time>
      </trkpt>
      <trkpt lat="43.61354" lon="1.56837">
        <ele>216.43395996094</ele>
        <time>2011-05-15T08:46:41Z</time>
      </trkpt>
      <trkpt lat="43.61357" lon="1.5681">
        <ele>216.43395996094</ele>
        <time>2011-05-15T08:46:47Z</time>
      </trkpt>
      <trkpt lat="43.61361" lon="1.56789">
        <ele>215.47265625</ele>
        <time>2011-05-15T08:46:52Z</time>
      </trkpt>
      <trkpt lat="43.61366" lon="1.56772">
        <ele>215.47265625</ele>
        <time>2011-05-15T08:46:56Z</time>
      </trkpt>
      <trkpt lat="43.61372" lon="1.56739">
        <ele>215.95324707031</ele>
        <time>2011-05-15T08:47:03Z</time>
      </trkpt>
      <trkpt lat="43.61375" lon="1.56716">
        <ele>216.43395996094</ele>
        <time>2011-05-15T08:47:08Z</time>
      </trkpt>
      <trkpt lat="43.61381" lon="1.56691">
        <ele>215.47265625</ele>
        <time>2011-05-15T08:47:14Z</time>
      </trkpt>
      <trkpt lat="43.61387" lon="1.5667">
        <ele>214.99194335938</ele>
        <time>2011-05-15T08:47:19Z</time>
      </trkpt>
      <trkpt lat="43.61392" lon="1.56647">
        <ele>215.47265625</ele>
        <time>2011-05-15T08:47:24Z</time>
      </trkpt>
      <trkpt lat="43.61396" lon="1.56631">
        <ele>214.99194335938</ele>
        <time>2011-05-15T08:47:28Z</time>
      </trkpt>
      <trkpt lat="43.61399" lon="1.56612">
        <ele>214.51123046875</ele>
        <time>2011-05-15T08:47:32Z</time>
      </trkpt>
      <trkpt lat="43.61402" lon="1.56595">
        <ele>215.47265625</ele>
        <time>2011-05-15T08:47:36Z</time>
      </trkpt>
      <trkpt lat="43.61407" lon="1.56572">
        <ele>216.43395996094</ele>
        <time>2011-05-15T08:47:41Z</time>
      </trkpt>
      <trkpt lat="43.61412" lon="1.56549">
        <ele>217.39538574219</ele>
        <time>2011-05-15T08:47:46Z</time>
      </trkpt>
      <trkpt lat="43.61419" lon="1.56518">
        <ele>216.91467285156</ele>
        <time>2011-05-15T08:47:53Z</time>
      </trkpt>
      <trkpt lat="43.61422" lon="1.56496">
        <ele>216.91467285156</ele>
        <time>2011-05-15T08:47:58Z</time>
      </trkpt>
      <trkpt lat="43.61427" lon="1.56472">
        <ele>217.39538574219</ele>
        <time>2011-05-15T08:48:03Z</time>
      </trkpt>
      <trkpt lat="43.61432" lon="1.56451">
        <ele>217.39538574219</ele>
        <time>2011-05-15T08:48:08Z</time>
      </trkpt>
      <trkpt lat="43.61438" lon="1.56425">
        <ele>215.47265625</ele>
        <time>2011-05-15T08:48:14Z</time>
      </trkpt>
      <trkpt lat="43.61443" lon="1.56396">
        <ele>214.51123046875</ele>
        <time>2011-05-15T08:48:20Z</time>
      </trkpt>
      <trkpt lat="43.61447" lon="1.56375">
        <ele>214.51123046875</ele>
        <time>2011-05-15T08:48:25Z</time>
      </trkpt>
      <trkpt lat="43.61451" lon="1.56352">
        <ele>214.51123046875</ele>
        <time>2011-05-15T08:48:30Z</time>
      </trkpt>
      <trkpt lat="43.61454" lon="1.56329">
        <ele>214.03063964844</ele>
        <time>2011-05-15T08:48:35Z</time>
      </trkpt>
      <trkpt lat="43.61459" lon="1.56307">
        <ele>213.0693359375</ele>
        <time>2011-05-15T08:48:40Z</time>
      </trkpt>
      <trkpt lat="43.61463" lon="1.56282">
        <ele>211.14672851562</ele>
        <time>2011-05-15T08:48:45Z</time>
      </trkpt>
      <trkpt lat="43.61465" lon="1.56263">
        <ele>211.62744140625</ele>
        <time>2011-05-15T08:48:49Z</time>
      </trkpt>
      <trkpt lat="43.6147" lon="1.56239">
        <ele>211.14672851562</ele>
        <time>2011-05-15T08:48:54Z</time>
      </trkpt>
      <trkpt lat="43.61472" lon="1.56216">
        <ele>211.14672851562</ele>
        <time>2011-05-15T08:48:59Z</time>
      </trkpt>
      <trkpt lat="43.61469" lon="1.56187">
        <ele>210.666015625</ele>
        <time>2011-05-15T08:49:05Z</time>
      </trkpt>
      <trkpt lat="43.61462" lon="1.56166">
        <ele>211.62744140625</ele>
        <time>2011-05-15T08:49:10Z</time>
      </trkpt>
      <trkpt lat="43.61453" lon="1.56145">
        <ele>212.10803222656</ele>
        <time>2011-05-15T08:49:15Z</time>
      </trkpt>
      <trkpt lat="43.61444" lon="1.56126">
        <ele>212.58862304688</ele>
        <time>2011-05-15T08:49:20Z</time>
      </trkpt>
      <trkpt lat="43.61432" lon="1.56104">
        <ele>212.58862304688</ele>
        <time>2011-05-15T08:49:26Z</time>
      </trkpt>
      <trkpt lat="43.6142" lon="1.56082">
        <ele>214.03063964844</ele>
        <time>2011-05-15T08:49:32Z</time>
      </trkpt>
      <trkpt lat="43.61413" lon="1.56065">
        <ele>214.99194335938</ele>
        <time>2011-05-15T08:49:36Z</time>
      </trkpt>
      <trkpt lat="43.614" lon="1.56039">
        <ele>215.95324707031</ele>
        <time>2011-05-15T08:49:43Z</time>
      </trkpt>
      <trkpt lat="43.61388" lon="1.56011">
        <ele>214.99194335938</ele>
        <time>2011-05-15T08:49:50Z</time>
      </trkpt>
      <trkpt lat="43.61383" lon="1.55991">
        <ele>213.0693359375</ele>
        <time>2011-05-15T08:49:54Z</time>
      </trkpt>
      <trkpt lat="43.61377" lon="1.55962">
        <ele>212.58862304688</ele>
        <time>2011-05-15T08:50:00Z</time>
      </trkpt>
      <trkpt lat="43.61378" lon="1.55937">
        <ele>211.62744140625</ele>
        <time>2011-05-15T08:50:05Z</time>
      </trkpt>
      <trkpt lat="43.61383" lon="1.5591">
        <ele>211.14672851562</ele>
        <time>2011-05-15T08:50:11Z</time>
      </trkpt>
      <trkpt lat="43.61386" lon="1.55892">
        <ele>209.70483398438</ele>
        <time>2011-05-15T08:50:15Z</time>
      </trkpt>
      <trkpt lat="43.61389" lon="1.55868">
        <ele>208.74340820312</ele>
        <time>2011-05-15T08:50:20Z</time>
      </trkpt>
      <trkpt lat="43.61393" lon="1.55847">
        <ele>208.26281738281</ele>
        <time>2011-05-15T08:50:25Z</time>
      </trkpt>
      <trkpt lat="43.61398" lon="1.55824">
        <ele>208.26281738281</ele>
        <time>2011-05-15T08:50:30Z</time>
      </trkpt>
      <trkpt lat="43.61401" lon="1.55806">
        <ele>208.26281738281</ele>
        <time>2011-05-15T08:50:34Z</time>
      </trkpt>
      <trkpt lat="43.61407" lon="1.55783">
        <ele>208.74340820312</ele>
        <time>2011-05-15T08:50:39Z</time>
      </trkpt>
      <trkpt lat="43.61412" lon="1.5576">
        <ele>208.74340820312</ele>
        <time>2011-05-15T08:50:44Z</time>
      </trkpt>
      <trkpt lat="43.6142" lon="1.55738">
        <ele>207.30139160156</ele>
        <time>2011-05-15T08:50:49Z</time>
      </trkpt>
      <trkpt lat="43.61427" lon="1.55713">
        <ele>205.37878417969</ele>
        <time>2011-05-15T08:50:54Z</time>
      </trkpt>
      <trkpt lat="43.61434" lon="1.55689">
        <ele>203.45617675781</ele>
        <time>2011-05-15T08:50:59Z</time>
      </trkpt>
      <trkpt lat="43.6144" lon="1.55662">
        <ele>203.93688964844</ele>
        <time>2011-05-15T08:51:05Z</time>
      </trkpt>
      <trkpt lat="43.61445" lon="1.55641">
        <ele>204.41748046875</ele>
        <time>2011-05-15T08:51:10Z</time>
      </trkpt>
      <trkpt lat="43.61447" lon="1.5562">
        <ele>204.41748046875</ele>
        <time>2011-05-15T08:51:15Z</time>
      </trkpt>
      <trkpt lat="43.61448" lon="1.55595">
        <ele>204.89807128906</ele>
        <time>2011-05-15T08:51:20Z</time>
      </trkpt>
      <trkpt lat="43.61448" lon="1.55571">
        <ele>204.89807128906</ele>
        <time>2011-05-15T08:51:25Z</time>
      </trkpt>
      <trkpt lat="43.61449" lon="1.55555">
        <ele>205.37878417969</ele>
        <time>2011-05-15T08:51:29Z</time>
      </trkpt>
      <trkpt lat="43.61448" lon="1.55525">
        <ele>205.85949707031</ele>
        <time>2011-05-15T08:51:35Z</time>
      </trkpt>
      <trkpt lat="43.61449" lon="1.55502">
        <ele>206.34008789062</ele>
        <time>2011-05-15T08:51:40Z</time>
      </trkpt>
      <trkpt lat="43.61449" lon="1.55478">
        <ele>206.82067871094</ele>
        <time>2011-05-15T08:51:45Z</time>
      </trkpt>
      <trkpt lat="43.61444" lon="1.55456">
        <ele>207.30139160156</ele>
        <time>2011-05-15T08:51:50Z</time>
      </trkpt>
      <trkpt lat="43.61436" lon="1.55435">
        <ele>207.30139160156</ele>
        <time>2011-05-15T08:51:55Z</time>
      </trkpt>
      <trkpt lat="43.61428" lon="1.55419">
        <ele>207.30139160156</ele>
        <time>2011-05-15T08:51:59Z</time>
      </trkpt>
      <trkpt lat="43.61419" lon="1.55406">
        <ele>207.30139160156</ele>
        <time>2011-05-15T08:52:03Z</time>
      </trkpt>
      <trkpt lat="43.61405" lon="1.55387">
        <ele>206.82067871094</ele>
        <time>2011-05-15T08:52:09Z</time>
      </trkpt>
      <trkpt lat="43.61395" lon="1.55368">
        <ele>205.85949707031</ele>
        <time>2011-05-15T08:52:14Z</time>
      </trkpt>
      <trkpt lat="43.61394" lon="1.55349">
        <ele>204.41748046875</ele>
        <time>2011-05-15T08:52:18Z</time>
      </trkpt>
      <trkpt lat="43.614" lon="1.55322">
        <ele>199.61083984375</ele>
        <time>2011-05-15T08:52:23Z</time>
      </trkpt>
      <trkpt lat="43.61406" lon="1.55296">
        <ele>196.72692871094</ele>
        <time>2011-05-15T08:52:28Z</time>
      </trkpt>
      <trkpt lat="43.61411" lon="1.5527">
        <ele>192.88171386719</ele>
        <time>2011-05-15T08:52:33Z</time>
      </trkpt>
      <trkpt lat="43.61416" lon="1.55241">
        <ele>188.55578613281</ele>
        <time>2011-05-15T08:52:38Z</time>
      </trkpt>
      <trkpt lat="43.6142" lon="1.5522">
        <ele>186.15246582031</ele>
        <time>2011-05-15T08:52:42Z</time>
      </trkpt>
      <trkpt lat="43.61422" lon="1.55203">
        <ele>185.67175292969</ele>
        <time>2011-05-15T08:52:45Z</time>
      </trkpt>
      <trkpt lat="43.61427" lon="1.55172">
        <ele>184.71057128906</ele>
        <time>2011-05-15T08:52:51Z</time>
      </trkpt>
      <trkpt lat="43.61433" lon="1.55136">
        <ele>184.22985839844</ele>
        <time>2011-05-15T08:52:58Z</time>
      </trkpt>
      <trkpt lat="43.61439" lon="1.55109">
        <ele>182.30712890625</ele>
        <time>2011-05-15T08:53:03Z</time>
      </trkpt>
      <trkpt lat="43.61443" lon="1.55087">
        <ele>180.865234375</ele>
        <time>2011-05-15T08:53:07Z</time>
      </trkpt>
      <trkpt lat="43.61448" lon="1.55056">
        <ele>179.42321777344</ele>
        <time>2011-05-15T08:53:13Z</time>
      </trkpt>
      <trkpt lat="43.61448" lon="1.55033">
        <ele>178.94262695312</ele>
        <time>2011-05-15T08:53:17Z</time>
      </trkpt>
      <trkpt lat="43.61446" lon="1.55002">
        <ele>177.50061035156</ele>
        <time>2011-05-15T08:53:23Z</time>
      </trkpt>
      <trkpt lat="43.6144" lon="1.54977">
        <ele>176.05859375</ele>
        <time>2011-05-15T08:53:28Z</time>
      </trkpt>
      <trkpt lat="43.61432" lon="1.54955">
        <ele>175.57788085938</ele>
        <time>2011-05-15T08:53:33Z</time>
      </trkpt>
      <trkpt lat="43.61422" lon="1.54935">
        <ele>172.21325683594</ele>
        <time>2011-05-15T08:53:38Z</time>
      </trkpt>
      <trkpt lat="43.6141" lon="1.54918">
        <ele>169.32946777344</ele>
        <time>2011-05-15T08:53:43Z</time>
      </trkpt>
      <trkpt lat="43.61395" lon="1.54896">
        <ele>166.92602539062</ele>
        <time>2011-05-15T08:53:49Z</time>
      </trkpt>
      <trkpt lat="43.61382" lon="1.54877">
        <ele>165.48413085938</ele>
        <time>2011-05-15T08:53:54Z</time>
      </trkpt>
      <trkpt lat="43.6137" lon="1.5486">
        <ele>163.5615234375</ele>
        <time>2011-05-15T08:53:59Z</time>
      </trkpt>
      <trkpt lat="43.61356" lon="1.54844">
        <ele>162.60009765625</ele>
        <time>2011-05-15T08:54:04Z</time>
      </trkpt>
      <trkpt lat="43.61345" lon="1.54828">
        <ele>163.08081054688</ele>
        <time>2011-05-15T08:54:09Z</time>
      </trkpt>
      <trkpt lat="43.61334" lon="1.54814">
        <ele>163.5615234375</ele>
        <time>2011-05-15T08:54:13Z</time>
      </trkpt>
      <trkpt lat="43.61319" lon="1.54794">
        <ele>164.52270507812</ele>
        <time>2011-05-15T08:54:19Z</time>
      </trkpt>
      <trkpt lat="43.61304" lon="1.54774">
        <ele>165.48413085938</ele>
        <time>2011-05-15T08:54:25Z</time>
      </trkpt>
      <trkpt lat="43.61293" lon="1.54757">
        <ele>165.00341796875</ele>
        <time>2011-05-15T08:54:30Z</time>
      </trkpt>
      <trkpt lat="43.61279" lon="1.54733">
        <ele>164.04211425781</ele>
        <time>2011-05-15T08:54:36Z</time>
      </trkpt>
      <trkpt lat="43.6127" lon="1.54715">
        <ele>163.08081054688</ele>
        <time>2011-05-15T08:54:41Z</time>
      </trkpt>
      <trkpt lat="43.6126" lon="1.54693">
        <ele>161.63891601562</ele>
        <time>2011-05-15T08:54:46Z</time>
      </trkpt>
      <trkpt lat="43.61239" lon="1.54692">
        <ele>160.19689941406</ele>
        <time>2011-05-15T08:54:52Z</time>
      </trkpt>
      <trkpt lat="43.61223" lon="1.54698">
        <ele>159.23547363281</ele>
        <time>2011-05-15T08:54:57Z</time>
      </trkpt>
      <trkpt lat="43.61209" lon="1.54711">
        <ele>159.23547363281</ele>
        <time>2011-05-15T08:55:02Z</time>
      </trkpt>
      <trkpt lat="43.61197" lon="1.54732">
        <ele>160.67749023438</ele>
        <time>2011-05-15T08:55:08Z</time>
      </trkpt>
      <trkpt lat="43.61184" lon="1.54754">
        <ele>160.19689941406</ele>
        <time>2011-05-15T08:55:14Z</time>
      </trkpt>
      <trkpt lat="43.61174" lon="1.54774">
        <ele>161.158203125</ele>
        <time>2011-05-15T08:55:19Z</time>
      </trkpt>
      <trkpt lat="43.61165" lon="1.54793">
        <ele>161.63891601562</ele>
        <time>2011-05-15T08:55:24Z</time>
      </trkpt>
      <trkpt lat="43.61153" lon="1.5482">
        <ele>163.08081054688</ele>
        <time>2011-05-15T08:55:31Z</time>
      </trkpt>
      <trkpt lat="43.61143" lon="1.5484">
        <ele>164.04211425781</ele>
        <time>2011-05-15T08:55:36Z</time>
      </trkpt>
      <trkpt lat="43.61134" lon="1.54859">
        <ele>164.52270507812</ele>
        <time>2011-05-15T08:55:41Z</time>
      </trkpt>
      <trkpt lat="43.6112" lon="1.54887">
        <ele>165.96472167969</ele>
        <time>2011-05-15T08:55:48Z</time>
      </trkpt>
      <trkpt lat="43.61108" lon="1.54908">
        <ele>165.96472167969</ele>
        <time>2011-05-15T08:55:54Z</time>
      </trkpt>
      <trkpt lat="43.61099" lon="1.54926">
        <ele>165.48413085938</ele>
        <time>2011-05-15T08:55:59Z</time>
      </trkpt>
      <trkpt lat="43.61089" lon="1.54944">
        <ele>165.48413085938</ele>
        <time>2011-05-15T08:56:04Z</time>
      </trkpt>
      <trkpt lat="43.61077" lon="1.54961">
        <ele>165.48413085938</ele>
        <time>2011-05-15T08:56:09Z</time>
      </trkpt>
      <trkpt lat="43.61066" lon="1.54977">
        <ele>165.96472167969</ele>
        <time>2011-05-15T08:56:14Z</time>
      </trkpt>
      <trkpt lat="43.61052" lon="1.54997">
        <ele>166.4453125</ele>
        <time>2011-05-15T08:56:20Z</time>
      </trkpt>
      <trkpt lat="43.61036" lon="1.55028">
        <ele>165.96472167969</ele>
        <time>2011-05-15T08:56:28Z</time>
      </trkpt>
      <trkpt lat="43.61025" lon="1.55052">
        <ele>164.52270507812</ele>
        <time>2011-05-15T08:56:34Z</time>
      </trkpt>
      <trkpt lat="43.61016" lon="1.55072">
        <ele>162.60009765625</ele>
        <time>2011-05-15T08:56:40Z</time>
      </trkpt>
      <trkpt lat="43.6101" lon="1.55087">
        <ele>162.11950683594</ele>
        <time>2011-05-15T08:56:44Z</time>
      </trkpt>
      <trkpt lat="43.61002" lon="1.55107">
        <ele>161.63891601562</ele>
        <time>2011-05-15T08:56:49Z</time>
      </trkpt>
      <trkpt lat="43.60992" lon="1.55128">
        <ele>161.158203125</ele>
        <time>2011-05-15T08:56:54Z</time>
      </trkpt>
      <trkpt lat="43.60982" lon="1.55147">
        <ele>161.158203125</ele>
        <time>2011-05-15T08:56:59Z</time>
      </trkpt>
      <trkpt lat="43.60969" lon="1.5517">
        <ele>162.11950683594</ele>
        <time>2011-05-15T08:57:05Z</time>
      </trkpt>
      <trkpt lat="43.60955" lon="1.55196">
        <ele>163.08081054688</ele>
        <time>2011-05-15T08:57:12Z</time>
      </trkpt>
      <trkpt lat="43.60943" lon="1.55218">
        <ele>163.08081054688</ele>
        <time>2011-05-15T08:57:18Z</time>
      </trkpt>
      <trkpt lat="43.60931" lon="1.55243">
        <ele>164.52270507812</ele>
        <time>2011-05-15T08:57:24Z</time>
      </trkpt>
      <trkpt lat="43.60919" lon="1.55266">
        <ele>165.48413085938</ele>
        <time>2011-05-15T08:57:30Z</time>
      </trkpt>
      <trkpt lat="43.6091" lon="1.55286">
        <ele>165.96472167969</ele>
        <time>2011-05-15T08:57:35Z</time>
      </trkpt>
      <trkpt lat="43.60896" lon="1.55313">
        <ele>166.92602539062</ele>
        <time>2011-05-15T08:57:42Z</time>
      </trkpt>
      <trkpt lat="43.60885" lon="1.55334">
        <ele>165.96472167969</ele>
        <time>2011-05-15T08:57:47Z</time>
      </trkpt>
      <trkpt lat="43.60875" lon="1.55354">
        <ele>165.96472167969</ele>
        <time>2011-05-15T08:57:52Z</time>
      </trkpt>
      <trkpt lat="43.60866" lon="1.55373">
        <ele>165.96472167969</ele>
        <time>2011-05-15T08:57:57Z</time>
      </trkpt>
      <trkpt lat="43.60853" lon="1.55399">
        <ele>165.48413085938</ele>
        <time>2011-05-15T08:58:04Z</time>
      </trkpt>
      <trkpt lat="43.60842" lon="1.55422">
        <ele>165.96472167969</ele>
        <time>2011-05-15T08:58:10Z</time>
      </trkpt>
      <trkpt lat="43.60831" lon="1.55444">
        <ele>165.96472167969</ele>
        <time>2011-05-15T08:58:16Z</time>
      </trkpt>
      <trkpt lat="43.60822" lon="1.55462">
        <ele>165.96472167969</ele>
        <time>2011-05-15T08:58:21Z</time>
      </trkpt>
      <trkpt lat="43.60813" lon="1.5548">
        <ele>165.96472167969</ele>
        <time>2011-05-15T08:58:26Z</time>
      </trkpt>
      <trkpt lat="43.608" lon="1.55506">
        <ele>165.96472167969</ele>
        <time>2011-05-15T08:58:33Z</time>
      </trkpt>
      <trkpt lat="43.60788" lon="1.55532">
        <ele>166.92602539062</ele>
        <time>2011-05-15T08:58:40Z</time>
      </trkpt>
      <trkpt lat="43.60777" lon="1.55555">
        <ele>167.40673828125</ele>
        <time>2011-05-15T08:58:46Z</time>
      </trkpt>
      <trkpt lat="43.60766" lon="1.55578">
        <ele>167.88732910156</ele>
        <time>2011-05-15T08:58:52Z</time>
      </trkpt>
      <trkpt lat="43.60757" lon="1.55597">
        <ele>167.88732910156</ele>
        <time>2011-05-15T08:58:57Z</time>
      </trkpt>
      <trkpt lat="43.60746" lon="1.55619">
        <ele>167.88732910156</ele>
        <time>2011-05-15T08:59:03Z</time>
      </trkpt>
      <trkpt lat="43.60735" lon="1.55642">
        <ele>167.88732910156</ele>
        <time>2011-05-15T08:59:09Z</time>
      </trkpt>
      <trkpt lat="43.60721" lon="1.55673">
        <ele>168.84875488281</ele>
        <time>2011-05-15T08:59:17Z</time>
      </trkpt>
      <trkpt lat="43.60711" lon="1.55694">
        <ele>169.32946777344</ele>
        <time>2011-05-15T08:59:23Z</time>
      </trkpt>
      <trkpt lat="43.60698" lon="1.55722">
        <ele>169.32946777344</ele>
        <time>2011-05-15T08:59:30Z</time>
      </trkpt>
      <trkpt lat="43.6069" lon="1.55753">
        <ele>170.29064941406</ele>
        <time>2011-05-15T08:59:37Z</time>
      </trkpt>
      <trkpt lat="43.60689" lon="1.55772">
        <ele>166.92602539062</ele>
        <time>2011-05-15T08:59:42Z</time>
      </trkpt>
      <trkpt lat="43.6069" lon="1.55801">
        <ele>165.00341796875</ele>
        <time>2011-05-15T08:59:49Z</time>
      </trkpt>
      <trkpt lat="43.60692" lon="1.55832">
        <ele>162.60009765625</ele>
        <time>2011-05-15T08:59:56Z</time>
      </trkpt>
      <trkpt lat="43.60694" lon="1.55859">
        <ele>160.19689941406</ele>
        <time>2011-05-15T09:00:02Z</time>
      </trkpt>
      <trkpt lat="43.60701" lon="1.55879">
        <ele>159.71618652344</ele>
        <time>2011-05-15T09:00:07Z</time>
      </trkpt>
      <trkpt lat="43.6071" lon="1.55896">
        <ele>159.23547363281</ele>
        <time>2011-05-15T09:00:12Z</time>
      </trkpt>
      <trkpt lat="43.6072" lon="1.55914">
        <ele>158.27416992188</ele>
        <time>2011-05-15T09:00:17Z</time>
      </trkpt>
      <trkpt lat="43.6073" lon="1.55936">
        <ele>156.83215332031</ele>
        <time>2011-05-15T09:00:23Z</time>
      </trkpt>
      <trkpt lat="43.60742" lon="1.55962">
        <ele>156.83215332031</ele>
        <time>2011-05-15T09:00:30Z</time>
      </trkpt>
      <trkpt lat="43.60752" lon="1.55985">
        <ele>155.87097167969</ele>
        <time>2011-05-15T09:00:36Z</time>
      </trkpt>
      <trkpt lat="43.60761" lon="1.56014">
        <ele>155.87097167969</ele>
        <time>2011-05-15T09:00:43Z</time>
      </trkpt>
      <trkpt lat="43.6077" lon="1.56044">
        <ele>155.87097167969</ele>
        <time>2011-05-15T09:00:50Z</time>
      </trkpt>
      <trkpt lat="43.6078" lon="1.56072">
        <ele>154.90954589844</ele>
        <time>2011-05-15T09:00:57Z</time>
      </trkpt>
      <trkpt lat="43.60786" lon="1.56093">
        <ele>154.90954589844</ele>
        <time>2011-05-15T09:01:02Z</time>
      </trkpt>
      <trkpt lat="43.60793" lon="1.56114">
        <ele>155.39025878906</ele>
        <time>2011-05-15T09:01:07Z</time>
      </trkpt>
      <trkpt lat="43.60802" lon="1.56144">
        <ele>154.42895507812</ele>
        <time>2011-05-15T09:01:14Z</time>
      </trkpt>
      <trkpt lat="43.6081" lon="1.56169">
        <ele>153.46765136719</ele>
        <time>2011-05-15T09:01:20Z</time>
      </trkpt>
      <trkpt lat="43.60819" lon="1.56194">
        <ele>153.46765136719</ele>
        <time>2011-05-15T09:01:26Z</time>
      </trkpt>
      <trkpt lat="43.60829" lon="1.56213">
        <ele>154.90954589844</ele>
        <time>2011-05-15T09:01:31Z</time>
      </trkpt>
      <trkpt lat="43.60844" lon="1.56225">
        <ele>155.87097167969</ele>
        <time>2011-05-15T09:01:37Z</time>
      </trkpt>
      <trkpt lat="43.60857" lon="1.56221">
        <ele>157.79357910156</ele>
        <time>2011-05-15T09:01:42Z</time>
      </trkpt>
      <trkpt lat="43.60873" lon="1.56211">
        <ele>159.71618652344</ele>
        <time>2011-05-15T09:01:48Z</time>
      </trkpt>
      <trkpt lat="43.60886" lon="1.56201">
        <ele>161.158203125</ele>
        <time>2011-05-15T09:01:53Z</time>
      </trkpt>
      <trkpt lat="43.60899" lon="1.56191">
        <ele>163.08081054688</ele>
        <time>2011-05-15T09:01:58Z</time>
      </trkpt>
      <trkpt lat="43.60917" lon="1.56178">
        <ele>166.92602539062</ele>
        <time>2011-05-15T09:02:05Z</time>
      </trkpt>
      <trkpt lat="43.60931" lon="1.56176">
        <ele>167.88732910156</ele>
        <time>2011-05-15T09:02:10Z</time>
      </trkpt>
      <trkpt lat="43.60941" lon="1.56184">
        <ele>169.32946777344</ele>
        <time>2011-05-15T09:02:14Z</time>
      </trkpt>
      <trkpt lat="43.60947" lon="1.56202">
        <ele>171.25207519531</ele>
        <time>2011-05-15T09:02:19Z</time>
      </trkpt>
      <trkpt lat="43.60947" lon="1.56222">
        <ele>174.13586425781</ele>
        <time>2011-05-15T09:02:24Z</time>
      </trkpt>
      <trkpt lat="43.60944" lon="1.56243">
        <ele>175.57788085938</ele>
        <time>2011-05-15T09:02:29Z</time>
      </trkpt>
      <trkpt lat="43.60942" lon="1.56268">
        <ele>177.02001953125</ele>
        <time>2011-05-15T09:02:35Z</time>
      </trkpt>
      <trkpt lat="43.60939" lon="1.56292">
        <ele>178.4619140625</ele>
        <time>2011-05-15T09:02:41Z</time>
      </trkpt>
      <trkpt lat="43.60938" lon="1.56301">
        <ele>178.4619140625</ele>
        <time>2011-05-15T09:02:43Z</time>
      </trkpt>
      <trkpt lat="43.60936" lon="1.56313">
        <ele>179.42321777344</ele>
        <time>2011-05-15T09:02:46Z</time>
      </trkpt>
      <trkpt lat="43.60933" lon="1.56338">
        <ele>180.865234375</ele>
        <time>2011-05-15T09:02:52Z</time>
      </trkpt>
      <trkpt lat="43.60932" lon="1.5636">
        <ele>183.26843261719</ele>
        <time>2011-05-15T09:02:57Z</time>
      </trkpt>
      <trkpt lat="43.6093" lon="1.56377">
        <ele>185.19116210938</ele>
        <time>2011-05-15T09:03:01Z</time>
      </trkpt>
      <trkpt lat="43.60928" lon="1.56395">
        <ele>187.11376953125</ele>
        <time>2011-05-15T09:03:05Z</time>
      </trkpt>
      <trkpt lat="43.60926" lon="1.56411">
        <ele>188.07507324219</ele>
        <time>2011-05-15T09:03:09Z</time>
      </trkpt>
      <trkpt lat="43.60925" lon="1.56427">
        <ele>188.55578613281</ele>
        <time>2011-05-15T09:03:13Z</time>
      </trkpt>
      <trkpt lat="43.60927" lon="1.56448">
        <ele>187.59436035156</ele>
        <time>2011-05-15T09:03:18Z</time>
      </trkpt>
      <trkpt lat="43.6093" lon="1.56467">
        <ele>187.59436035156</ele>
        <time>2011-05-15T09:03:23Z</time>
      </trkpt>
      <trkpt lat="43.60933" lon="1.56487">
        <ele>187.11376953125</ele>
        <time>2011-05-15T09:03:28Z</time>
      </trkpt>
      <trkpt lat="43.60933" lon="1.56507">
        <ele>187.11376953125</ele>
        <time>2011-05-15T09:03:33Z</time>
      </trkpt>
      <trkpt lat="43.60934" lon="1.56529">
        <ele>188.55578613281</ele>
        <time>2011-05-15T09:03:38Z</time>
      </trkpt>
      <trkpt lat="43.60931" lon="1.56559">
        <ele>191.43957519531</ele>
        <time>2011-05-15T09:03:45Z</time>
      </trkpt>
      <trkpt lat="43.60923" lon="1.56583">
        <ele>193.3623046875</ele>
        <time>2011-05-15T09:03:51Z</time>
      </trkpt>
      <trkpt lat="43.60915" lon="1.56607">
        <ele>195.28491210938</ele>
        <time>2011-05-15T09:03:57Z</time>
      </trkpt>
      <trkpt lat="43.60905" lon="1.56634">
        <ele>195.765625</ele>
        <time>2011-05-15T09:04:04Z</time>
      </trkpt>
      <trkpt lat="43.60894" lon="1.56656">
        <ele>195.765625</ele>
        <time>2011-05-15T09:04:10Z</time>
      </trkpt>
      <trkpt lat="43.60886" lon="1.56676">
        <ele>197.68823242188</ele>
        <time>2011-05-15T09:04:15Z</time>
      </trkpt>
      <trkpt lat="43.60874" lon="1.56703">
        <ele>200.09167480469</ele>
        <time>2011-05-15T09:04:22Z</time>
      </trkpt>
      <trkpt lat="43.60867" lon="1.56722">
        <ele>200.572265625</ele>
        <time>2011-05-15T09:04:27Z</time>
      </trkpt>
      <trkpt lat="43.60861" lon="1.5674">
        <ele>202.97546386719</ele>
        <time>2011-05-15T09:04:32Z</time>
      </trkpt>
      <trkpt lat="43.60857" lon="1.56765">
        <ele>205.37878417969</ele>
        <time>2011-05-15T09:04:38Z</time>
      </trkpt>
      <trkpt lat="43.60865" lon="1.56786">
        <ele>205.37878417969</ele>
        <time>2011-05-15T09:04:44Z</time>
      </trkpt>
      <trkpt lat="43.60867" lon="1.56789">
        <ele>205.37878417969</ele>
        <time>2011-05-15T09:04:45Z</time>
      </trkpt>
      <trkpt lat="43.60884" lon="1.5681">
        <ele>205.37878417969</ele>
        <time>2011-05-15T09:04:53Z</time>
      </trkpt>
      <trkpt lat="43.60893" lon="1.5682">
        <ele>205.37878417969</ele>
        <time>2011-05-15T09:04:57Z</time>
      </trkpt>
      <trkpt lat="43.60902" lon="1.56829">
        <ele>205.85949707031</ele>
        <time>2011-05-15T09:05:01Z</time>
      </trkpt>
      <trkpt lat="43.60915" lon="1.56845">
        <ele>204.41748046875</ele>
        <time>2011-05-15T09:05:07Z</time>
      </trkpt>
      <trkpt lat="43.60928" lon="1.5686">
        <ele>202.49487304688</ele>
        <time>2011-05-15T09:05:12Z</time>
      </trkpt>
      <trkpt lat="43.6094" lon="1.56874">
        <ele>202.01428222656</ele>
        <time>2011-05-15T09:05:17Z</time>
      </trkpt>
      <trkpt lat="43.60952" lon="1.56886">
        <ele>202.49487304688</ele>
        <time>2011-05-15T09:05:21Z</time>
      </trkpt>
      <trkpt lat="43.60965" lon="1.56899">
        <ele>202.97546386719</ele>
        <time>2011-05-15T09:05:26Z</time>
      </trkpt>
      <trkpt lat="43.60975" lon="1.5691">
        <ele>202.49487304688</ele>
        <time>2011-05-15T09:05:30Z</time>
      </trkpt>
      <trkpt lat="43.60985" lon="1.56921">
        <ele>202.49487304688</ele>
        <time>2011-05-15T09:05:34Z</time>
      </trkpt>
      <trkpt lat="43.61003" lon="1.56941">
        <ele>202.49487304688</ele>
        <time>2011-05-15T09:05:41Z</time>
      </trkpt>
      <trkpt lat="43.61021" lon="1.56962">
        <ele>203.45617675781</ele>
        <time>2011-05-15T09:05:48Z</time>
      </trkpt>
      <trkpt lat="43.61035" lon="1.56976">
        <ele>202.49487304688</ele>
        <time>2011-05-15T09:05:53Z</time>
      </trkpt>
      <trkpt lat="43.61047" lon="1.56989">
        <ele>202.01428222656</ele>
        <time>2011-05-15T09:05:57Z</time>
      </trkpt>
      <trkpt lat="43.61061" lon="1.57005">
        <ele>201.53356933594</ele>
        <time>2011-05-15T09:06:02Z</time>
      </trkpt>
      <trkpt lat="43.61078" lon="1.57023">
        <ele>200.572265625</ele>
        <time>2011-05-15T09:06:08Z</time>
      </trkpt>
      <trkpt lat="43.61092" lon="1.57038">
        <ele>201.05285644531</ele>
        <time>2011-05-15T09:06:13Z</time>
      </trkpt>
      <trkpt lat="43.61107" lon="1.57054">
        <ele>202.49487304688</ele>
        <time>2011-05-15T09:06:18Z</time>
      </trkpt>
      <trkpt lat="43.61124" lon="1.57071">
        <ele>205.37878417969</ele>
        <time>2011-05-15T09:06:24Z</time>
      </trkpt>
      <trkpt lat="43.61136" lon="1.57083">
        <ele>205.37878417969</ele>
        <time>2011-05-15T09:06:28Z</time>
      </trkpt>
      <trkpt lat="43.61151" lon="1.57099">
        <ele>205.85949707031</ele>
        <time>2011-05-15T09:06:33Z</time>
      </trkpt>
      <trkpt lat="43.61163" lon="1.57117">
        <ele>206.34008789062</ele>
        <time>2011-05-15T09:06:38Z</time>
      </trkpt>
      <trkpt lat="43.61178" lon="1.57142">
        <ele>207.78210449219</ele>
        <time>2011-05-15T09:06:44Z</time>
      </trkpt>
      <trkpt lat="43.61189" lon="1.5716">
        <ele>208.26281738281</ele>
        <time>2011-05-15T09:06:49Z</time>
      </trkpt>
      <trkpt lat="43.61203" lon="1.57183">
        <ele>209.70483398438</ele>
        <time>2011-05-15T09:06:55Z</time>
      </trkpt>
      <trkpt lat="43.61201" lon="1.57202">
        <ele>211.14672851562</ele>
        <time>2011-05-15T09:06:59Z</time>
      </trkpt>
      <trkpt lat="43.61192" lon="1.57224">
        <ele>212.10803222656</ele>
        <time>2011-05-15T09:07:04Z</time>
      </trkpt>
      <trkpt lat="43.61181" lon="1.57248">
        <ele>213.0693359375</ele>
        <time>2011-05-15T09:07:09Z</time>
      </trkpt>
      <trkpt lat="43.61171" lon="1.57276">
        <ele>214.51123046875</ele>
        <time>2011-05-15T09:07:15Z</time>
      </trkpt>
      <trkpt lat="43.6116" lon="1.57305">
        <ele>216.43395996094</ele>
        <time>2011-05-15T09:07:21Z</time>
      </trkpt>
      <trkpt lat="43.61151" lon="1.57325">
        <ele>217.39538574219</ele>
        <time>2011-05-15T09:07:25Z</time>
      </trkpt>
      <trkpt lat="43.6114" lon="1.57344">
        <ele>217.8759765625</ele>
        <time>2011-05-15T09:07:29Z</time>
      </trkpt>
      <trkpt lat="43.61132" lon="1.57363">
        <ele>218.83728027344</ele>
        <time>2011-05-15T09:07:33Z</time>
      </trkpt>
      <trkpt lat="43.61119" lon="1.57388">
        <ele>219.31799316406</ele>
        <time>2011-05-15T09:07:38Z</time>
      </trkpt>
      <trkpt lat="43.61106" lon="1.57412">
        <ele>218.83728027344</ele>
        <time>2011-05-15T09:07:43Z</time>
      </trkpt>
      <trkpt lat="43.61103" lon="1.57423">
        <ele>217.8759765625</ele>
        <time>2011-05-15T09:07:45Z</time>
      </trkpt>
    </trkseg>
  </trk>
</gpx>